Time,TemperatureF,DewpointF,PressureIn,WindDirection,WindDirectionDegrees,WindSpeedMPH,WindSpeedGustMPH,Humidity,HourlyPrecipIn,Conditions,Clouds,dailyrainin,SoftwareType,DateUTC
2013-02-15 00:01:00,37.8,1.4,29.15,NNE,15,2.7,2.7,21,0.00,,---,0.00,VWS V14.01,2013-02-15 06:01:00,
2013-02-15 00:06:00,37.6,1.2,29.15,NNE,13,3.1,3.1,21,0.00,,---,0.00,VWS V14.01,2013-02-15 06:06:00,
2013-02-15 00:11:00,37.2,1.9,29.15,SW,225,3.6,4.0,22,0.00,,---,0.00,VWS V14.01,2013-02-15 06:11:00,
2013-02-15 00:16:00,37.0,1.7,29.15,ESE,108,0.0,0.0,22,0.00,,---,0.00,VWS V14.01,2013-02-15 06:16:00,
2013-02-15 00:21:00,36.9,1.6,29.15,West,267,4.0,4.0,22,0.00,,---,0.00,VWS V14.01,2013-02-15 06:21:00,
2013-02-15 00:22:00,36.9,1.6,29.15,West,267,4.0,4.0,22,0.00,,---,0.00,VWS V14.01,2013-02-15 06:22:00,
2013-02-15 00:26:00,36.7,1.4,29.15,SW,231,2.7,2.7,22,0.00,,---,0.00,VWS V14.01,2013-02-15 06:26:00,
2013-02-15 00:27:00,36.7,1.4,29.15,SW,231,2.7,2.7,22,0.00,,---,0.00,VWS V14.01,2013-02-15 06:27:00,
2013-02-15 00:31:00,36.5,1.3,29.15,North,0,3.1,3.1,22,0.00,,---,0.00,VWS V14.01,2013-02-15 06:31:00,
2013-02-15 00:32:00,36.5,1.3,29.15,North,0,3.1,3.1,22,0.00,,---,0.00,VWS V14.01,2013-02-15 06:32:00,
2013-02-15 00:36:00,36.3,1.1,29.15,North,350,2.2,2.2,22,0.00,,---,0.00,VWS V14.01,2013-02-15 06:36:00,
2013-02-15 00:37:00,36.3,1.1,29.15,North,350,2.2,2.2,22,0.00,,---,0.00,VWS V14.01,2013-02-15 06:37:00,
2013-02-15 00:42:00,36.1,1.0,29.15,North,353,5.4,5.4,22,0.00,,---,0.00,VWS V14.01,2013-02-15 06:42:00,
2013-02-15 00:46:00,36.0,0.8,29.15,West,277,5.4,5.4,22,0.00,,---,0.00,VWS V14.01,2013-02-15 06:46:00,
2013-02-15 00:47:00,36.0,0.8,29.15,West,277,5.4,5.4,22,0.00,,---,0.00,VWS V14.01,2013-02-15 06:47:00,
2013-02-15 00:52:00,35.6,0.5,29.15,WNW,288,2.7,2.7,22,0.00,,---,0.00,VWS V14.01,2013-02-15 06:52:00,
2013-02-15 00:53:00,35.6,0.5,29.15,WNW,288,2.7,2.7,22,0.00,,---,0.00,VWS V14.01,2013-02-15 06:53:00,
2013-02-15 00:57:00,35.6,0.5,29.15,West,280,2.2,2.2,22,0.00,,---,0.00,VWS V14.01,2013-02-15 06:57:00,
2013-02-15 00:58:00,35.6,0.5,29.15,West,273,2.7,2.7,22,0.00,,---,0.00,VWS V14.01,2013-02-15 06:58:00,
2013-02-15 01:02:00,35.4,0.4,29.18,SW,235,3.1,3.1,22,0.00,,---,0.00,VWS V14.01,2013-02-15 07:02:00,
2013-02-15 01:03:00,35.4,0.4,29.18,SW,235,3.1,3.1,22,0.00,,---,0.00,VWS V14.01,2013-02-15 07:03:00,
2013-02-15 01:07:00,35.4,0.4,29.18,WSW,239,3.1,3.1,22,0.00,,---,0.00,VWS V14.01,2013-02-15 07:07:00,
2013-02-15 01:08:00,35.2,0.2,29.18,NNE,15,2.7,3.1,22,0.00,,---,0.00,VWS V14.01,2013-02-15 07:08:00,
2013-02-15 01:12:00,35.2,0.2,29.18,NE,38,2.2,2.2,22,0.00,,---,0.00,VWS V14.01,2013-02-15 07:12:00,
2013-02-15 01:13:00,35.1,0.1,29.18,NE,38,2.2,2.2,22,0.00,,---,0.00,VWS V14.01,2013-02-15 07:13:00,
2013-02-15 01:17:00,35.1,0.1,29.18,WNW,292,0.0,2.7,22,0.00,,---,0.00,VWS V14.01,2013-02-15 07:17:00,
2013-02-15 01:18:00,35.1,0.1,29.18,WNW,292,0.0,0.0,22,0.00,,---,0.00,VWS V14.01,2013-02-15 07:18:00,
2013-02-15 01:22:00,35.1,0.1,29.18,SSW,194,2.7,2.7,22,0.00,,---,0.00,VWS V14.01,2013-02-15 07:22:00,
2013-02-15 01:23:00,35.1,0.1,29.18,SSW,212,2.7,2.7,22,0.00,,---,0.00,VWS V14.01,2013-02-15 07:23:00,
2013-02-15 01:27:00,35.1,0.1,29.18,WSW,247,2.2,2.2,22,0.00,,---,0.00,VWS V14.01,2013-02-15 07:27:00,
2013-02-15 01:28:00,35.1,0.1,29.18,WSW,247,2.2,2.2,22,0.00,,---,0.00,VWS V14.01,2013-02-15 07:28:00,
2013-02-15 01:32:00,34.9,-0.1,29.18,SSW,210,3.1,3.1,22,0.00,,---,0.00,VWS V14.01,2013-02-15 07:32:00,
2013-02-15 01:33:00,34.9,-0.1,29.18,SSW,210,3.1,3.1,22,0.00,,---,0.00,VWS V14.01,2013-02-15 07:33:00,
2013-02-15 01:37:00,34.9,-0.1,29.18,SW,227,3.1,3.1,22,0.00,,---,0.00,VWS V14.01,2013-02-15 07:37:00,
2013-02-15 01:38:00,34.9,-0.1,29.18,SW,227,3.1,3.1,22,0.00,,---,0.00,VWS V14.01,2013-02-15 07:38:00,
2013-02-15 01:42:00,34.9,-0.1,29.18,SSE,160,4.9,4.9,22,0.00,,---,0.00,VWS V14.01,2013-02-15 07:42:00,
2013-02-15 01:43:00,34.9,-0.1,29.18,SSE,160,4.9,4.9,22,0.00,,---,0.00,VWS V14.01,2013-02-15 07:43:00,
2013-02-15 01:47:00,34.7,-0.2,29.18,WSW,243,3.1,3.1,22,0.00,,---,0.00,VWS V14.01,2013-02-15 07:47:00,
2013-02-15 01:48:00,34.7,-0.2,29.18,South,174,2.7,3.1,22,0.00,,---,0.00,VWS V14.01,2013-02-15 07:48:00,
2013-02-15 01:49:00,34.7,-0.2,29.18,South,174,2.7,2.7,22,0.00,,---,0.00,VWS V14.01,2013-02-15 07:49:00,
2013-02-15 01:52:00,34.7,-0.2,29.18,South,174,2.7,2.7,22,0.00,,---,0.00,VWS V14.01,2013-02-15 07:52:00,
2013-02-15 01:53:00,34.7,-0.2,29.18,South,188,3.1,3.1,22,0.00,,---,0.00,VWS V14.01,2013-02-15 07:53:00,
2013-02-15 01:54:00,34.7,-0.2,29.18,South,188,3.1,3.1,22,0.00,,---,0.00,VWS V14.01,2013-02-15 07:54:00,
2013-02-15 01:57:00,34.5,-0.4,29.18,South,188,3.1,3.1,22,0.00,,---,0.00,VWS V14.01,2013-02-15 07:57:00,
2013-02-15 01:58:00,34.7,-0.2,29.18,South,188,3.1,3.1,22,0.00,,---,0.00,VWS V14.01,2013-02-15 07:58:00,
2013-02-15 01:59:00,34.5,-0.4,29.18,South,188,3.1,3.1,22,0.00,,---,0.00,VWS V14.01,2013-02-15 07:59:00,
2013-02-15 02:02:00,34.5,-0.4,29.18,SSW,197,4.0,4.0,22,0.00,,---,0.00,VWS V14.01,2013-02-15 08:02:00,
2013-02-15 02:03:00,34.5,-0.4,29.18,SSW,197,4.0,4.0,22,0.00,,---,0.00,VWS V14.01,2013-02-15 08:03:00,
2013-02-15 02:04:00,34.5,-0.4,29.18,WSW,238,4.0,4.0,22,0.00,,---,0.00,VWS V14.01,2013-02-15 08:04:00,
2013-02-15 02:08:00,34.5,-0.4,29.18,WSW,238,4.0,4.0,22,0.00,,---,0.00,VWS V14.01,2013-02-15 08:08:00,
2013-02-15 02:09:00,34.5,-0.4,29.18,WSW,241,3.6,3.6,22,0.00,,---,0.00,VWS V14.01,2013-02-15 08:09:00,
2013-02-15 02:12:00,34.5,-0.4,29.18,WSW,241,3.6,3.6,22,0.00,,---,0.00,VWS V14.01,2013-02-15 08:12:00,
2013-02-15 02:13:00,34.5,-0.4,29.18,WSW,241,3.6,3.6,22,0.00,,---,0.00,VWS V14.01,2013-02-15 08:13:00,
2013-02-15 02:15:00,34.5,-0.4,29.18,South,184,3.1,3.1,22,0.00,,---,0.00,VWS V14.01,2013-02-15 08:15:00,
2013-02-15 02:18:00,34.3,-0.6,29.18,WSW,247,2.7,2.7,22,0.00,,---,0.00,VWS V14.01,2013-02-15 08:18:00,
2013-02-15 02:19:00,34.3,-0.6,29.18,WSW,247,2.7,2.7,22,0.00,,---,0.00,VWS V14.01,2013-02-15 08:19:00,
2013-02-15 02:20:00,34.2,-0.7,29.18,WSW,247,2.7,2.7,22,0.00,,---,0.00,VWS V14.01,2013-02-15 08:20:00,
2013-02-15 02:23:00,34.0,-0.9,29.18,NNW,333,4.0,4.0,22,0.00,,---,0.00,VWS V14.01,2013-02-15 08:23:00,
2013-02-15 02:24:00,34.0,-0.9,29.18,NNW,333,4.0,4.0,22,0.00,,---,0.00,VWS V14.01,2013-02-15 08:24:00,
2013-02-15 02:25:00,33.8,-1.0,29.18,NNW,333,4.0,4.0,22,0.00,,---,0.00,VWS V14.01,2013-02-15 08:25:00,
2013-02-15 02:28:00,33.8,-1.0,29.18,WNW,287,2.7,6.7,22,0.00,,---,0.00,VWS V14.01,2013-02-15 08:28:00,
2013-02-15 02:29:00,33.8,-1.0,29.18,WNW,287,2.7,2.7,22,0.00,,---,0.00,VWS V14.01,2013-02-15 08:29:00,
2013-02-15 02:30:00,33.6,-0.2,29.18,North,4,3.6,3.6,23,0.00,,---,0.00,VWS V14.01,2013-02-15 08:30:00,
2013-02-15 02:33:00,33.6,-0.2,29.21,North,4,3.6,3.6,23,0.00,,---,0.00,VWS V14.01,2013-02-15 08:33:00,
2013-02-15 02:34:00,33.6,-0.2,29.21,North,4,3.6,3.6,23,0.00,,---,0.00,VWS V14.01,2013-02-15 08:34:00,
2013-02-15 02:35:00,33.6,-0.2,29.21,North,4,3.6,3.6,23,0.00,,---,0.00,VWS V14.01,2013-02-15 08:35:00,
2013-02-15 02:38:00,33.4,-0.4,29.21,NW,316,5.8,5.8,23,0.00,,---,0.00,VWS V14.01,2013-02-15 08:38:00,
2013-02-15 02:39:00,33.4,-0.4,29.21,NNW,338,2.2,2.2,23,0.00,,---,0.00,VWS V14.01,2013-02-15 08:39:00,
2013-02-15 02:40:00,33.4,-0.4,29.21,NNW,338,2.2,2.2,23,0.00,,---,0.00,VWS V14.01,2013-02-15 08:40:00,
2013-02-15 02:43:00,33.3,-0.5,29.21,NNW,343,3.6,3.6,23,0.00,,---,0.00,VWS V14.01,2013-02-15 08:43:00,
2013-02-15 02:44:00,33.3,-0.5,29.21,NNW,343,3.6,3.6,23,0.00,,---,0.00,VWS V14.01,2013-02-15 08:44:00,
2013-02-15 02:45:00,33.3,-0.5,29.21,NNE,14,4.0,4.0,23,0.00,,---,0.00,VWS V14.01,2013-02-15 08:45:00,
2013-02-15 02:48:00,33.1,-0.7,29.21,NW,326,3.1,3.1,23,0.00,,---,0.00,VWS V14.01,2013-02-15 08:48:00,
2013-02-15 02:49:00,33.1,-0.7,29.21,NW,326,3.1,3.1,23,0.00,,---,0.00,VWS V14.01,2013-02-15 08:49:00,
2013-02-15 02:51:00,33.1,-0.7,29.21,North,10,2.2,2.2,23,0.00,,---,0.00,VWS V14.01,2013-02-15 08:51:00,
2013-02-15 02:53:00,33.1,-0.7,29.21,North,10,2.2,2.2,23,0.00,,---,0.00,VWS V14.01,2013-02-15 08:53:00,
2013-02-15 02:54:00,33.1,-0.7,29.21,West,278,3.1,8.1,23,0.00,,---,0.00,VWS V14.01,2013-02-15 08:54:00,
2013-02-15 02:56:00,32.9,-0.8,29.21,West,278,3.1,3.1,23,0.00,,---,0.00,VWS V14.01,2013-02-15 08:56:00,
2013-02-15 02:58:00,32.9,-0.8,29.21,NNE,12,6.3,6.3,23,0.00,,---,0.00,VWS V14.01,2013-02-15 08:58:00,
2013-02-15 02:59:00,32.9,-0.8,29.21,NNE,12,6.3,6.3,23,0.00,,---,0.00,VWS V14.01,2013-02-15 08:59:00,
2013-02-15 03:00:00,32.9,-0.8,29.21,NNE,12,6.3,6.3,23,0.00,,---,0.00,VWS V14.01,2013-02-15 09:00:00,
2013-02-15 03:01:00,32.7,-1.0,29.21,NNE,12,6.3,6.3,23,0.00,,---,0.00,VWS V14.01,2013-02-15 09:01:00,
2013-02-15 03:03:00,32.7,-1.0,29.21,WNW,284,4.0,6.3,23,0.00,,---,0.00,VWS V14.01,2013-02-15 09:03:00,
2013-02-15 03:05:00,32.7,-1.0,29.21,WNW,284,4.0,4.0,23,0.00,,---,0.00,VWS V14.01,2013-02-15 09:05:00,
2013-02-15 03:06:00,32.7,-1.0,29.21,WNW,302,2.2,4.0,23,0.00,,---,0.00,VWS V14.01,2013-02-15 09:06:00,
2013-02-15 03:08:00,32.7,-1.0,29.21,NNE,20,3.6,3.6,23,0.00,,---,0.00,VWS V14.01,2013-02-15 09:08:00,
2013-02-15 03:10:00,32.5,-1.1,29.21,West,276,5.8,5.8,23,0.00,,---,0.00,VWS V14.01,2013-02-15 09:10:00,
2013-02-15 03:11:00,32.4,-1.3,29.21,West,276,5.8,5.8,23,0.00,,---,0.00,VWS V14.01,2013-02-15 09:11:00,
2013-02-15 03:13:00,32.4,-1.3,29.21,North,357,7.6,7.6,23,0.00,,---,0.00,VWS V14.01,2013-02-15 09:13:00,
2013-02-15 03:15:00,32.4,-1.3,29.21,North,357,7.6,7.6,23,0.00,,---,0.00,VWS V14.01,2013-02-15 09:15:00,
2013-02-15 03:16:00,32.2,-1.4,29.21,North,357,7.6,7.6,23,0.00,,---,0.00,VWS V14.01,2013-02-15 09:16:00,
2013-02-15 03:18:00,32.2,-1.4,29.21,North,357,7.6,7.6,23,0.00,,---,0.00,VWS V14.01,2013-02-15 09:18:00,
2013-02-15 03:20:00,32.2,-1.4,29.21,North,357,7.6,7.6,23,0.00,,---,0.00,VWS V14.01,2013-02-15 09:20:00,
2013-02-15 03:21:00,32.2,-1.4,29.21,NNW,340,4.0,5.4,23,0.00,,---,0.00,VWS V14.01,2013-02-15 09:21:00,
2013-02-15 03:23:00,32.0,-1.6,29.21,NNE,12,3.1,3.1,23,0.00,,---,0.00,VWS V14.01,2013-02-15 09:23:00,
2013-02-15 03:25:00,32.0,-1.6,29.21,NNW,336,2.7,5.8,23,0.00,,---,0.00,VWS V14.01,2013-02-15 09:25:00,
2013-02-15 03:26:00,32.0,-1.6,29.21,North,0,3.6,3.6,23,0.00,,---,0.00,VWS V14.01,2013-02-15 09:26:00,
2013-02-15 03:28:00,31.8,-1.8,29.21,NE,34,8.1,8.1,23,0.00,,---,0.00,VWS V14.01,2013-02-15 09:28:00,
2013-02-15 03:30:00,31.8,-1.8,29.21,NE,34,8.1,8.1,23,0.00,,---,0.00,VWS V14.01,2013-02-15 09:30:00,
2013-02-15 03:31:00,31.8,-1.8,29.21,North,0,4.0,4.0,23,0.00,,---,0.00,VWS V14.01,2013-02-15 09:31:00,
2013-02-15 03:33:00,31.8,-1.8,29.21,North,353,5.4,5.4,23,0.00,,---,0.00,VWS V14.01,2013-02-15 09:33:00,
2013-02-15 03:35:00,31.8,-1.8,29.21,North,8,3.1,5.4,23,0.00,,---,0.00,VWS V14.01,2013-02-15 09:35:00,
2013-02-15 03:36:00,31.6,-1.9,29.21,North,6,5.4,5.4,23,0.00,,---,0.00,VWS V14.01,2013-02-15 09:36:00,
2013-02-15 03:38:00,31.6,-1.9,29.21,North,6,5.4,5.4,23,0.00,,---,0.00,VWS V14.01,2013-02-15 09:38:00,
2013-02-15 03:40:00,31.6,-1.9,29.21,ENE,70,5.4,5.4,23,0.00,,---,0.00,VWS V14.01,2013-02-15 09:40:00,
2013-02-15 03:42:00,31.5,-2.0,29.21,ENE,70,5.4,5.4,23,0.00,,---,0.00,VWS V14.01,2013-02-15 09:42:00,
2013-02-15 03:43:00,31.5,-2.0,29.21,West,266,6.3,6.3,23,0.00,,---,0.00,VWS V14.01,2013-02-15 09:43:00,
2013-02-15 03:45:00,31.5,-2.0,29.21,North,357,5.4,6.3,23,0.00,,---,0.00,VWS V14.01,2013-02-15 09:45:00,
2013-02-15 03:47:00,31.3,-2.2,29.23,North,357,5.4,5.4,23,0.00,,---,0.00,VWS V14.01,2013-02-15 09:47:00,
2013-02-15 03:48:00,31.3,-2.2,29.23,NW,314,4.9,4.9,23,0.00,,---,0.00,VWS V14.01,2013-02-15 09:48:00,
2013-02-15 03:50:00,31.3,-2.2,29.23,NW,314,4.9,4.9,23,0.00,,---,0.00,VWS V14.01,2013-02-15 09:50:00,
2013-02-15 03:52:00,31.3,-2.2,29.23,NNW,327,2.7,4.9,23,0.00,,---,0.00,VWS V14.01,2013-02-15 09:52:00,
2013-02-15 03:54:00,31.1,-2.4,29.23,NNE,24,3.1,3.1,23,0.00,,---,0.00,VWS V14.01,2013-02-15 09:54:00,
2013-02-15 03:55:00,31.1,-2.4,29.23,NW,314,2.2,2.2,23,0.00,,---,0.00,VWS V14.01,2013-02-15 09:55:00,
2013-02-15 03:57:00,30.9,-2.5,29.23,WNW,302,4.0,4.0,23,0.00,,---,0.00,VWS V14.01,2013-02-15 09:57:00,
2013-02-15 03:59:00,30.7,-2.7,29.23,ENE,58,3.1,3.1,23,0.00,,---,0.00,VWS V14.01,2013-02-15 09:59:00,
2013-02-15 04:00:00,30.9,-2.5,29.23,ENE,58,3.1,3.1,23,0.00,,---,0.00,VWS V14.01,2013-02-15 10:00:00,
2013-02-15 04:01:00,30.9,-2.5,29.23,SW,236,5.4,5.4,23,0.00,,---,0.00,VWS V14.01,2013-02-15 10:01:00,
2013-02-15 04:02:00,30.7,-2.7,29.23,NW,311,4.0,4.0,23,0.00,,---,0.00,VWS V14.01,2013-02-15 10:02:00,
2013-02-15 04:04:00,30.6,-2.8,29.23,North,7,0.0,4.0,23,0.00,,---,0.00,VWS V14.01,2013-02-15 10:04:00,
2013-02-15 04:05:00,30.7,-2.7,29.23,North,7,0.0,0.0,23,0.00,,---,0.00,VWS V14.01,2013-02-15 10:05:00,
2013-02-15 04:06:00,30.7,-2.7,29.23,North,357,2.7,2.7,23,0.00,,---,0.00,VWS V14.01,2013-02-15 10:06:00,
2013-02-15 04:07:00,30.6,-2.8,29.23,NNW,344,2.7,2.7,23,0.00,,---,0.00,VWS V14.01,2013-02-15 10:07:00,
2013-02-15 04:09:00,30.6,-2.8,29.23,NNW,344,2.7,2.7,23,0.00,,---,0.00,VWS V14.01,2013-02-15 10:09:00,
2013-02-15 04:10:00,30.6,-2.8,29.23,NNW,332,8.7,8.7,23,0.00,,---,0.00,VWS V14.01,2013-02-15 10:10:00,
2013-02-15 04:11:00,30.6,-2.8,29.23,NNW,332,8.7,8.7,23,0.00,,---,0.00,VWS V14.01,2013-02-15 10:11:00,
2013-02-15 04:13:00,30.4,-3.0,29.23,NNW,332,8.7,8.7,23,0.00,,---,0.00,VWS V14.01,2013-02-15 10:13:00,
2013-02-15 04:14:00,30.4,-3.0,29.23,North,357,2.7,2.7,23,0.00,,---,0.00,VWS V14.01,2013-02-15 10:14:00,
2013-02-15 04:15:00,30.4,-3.0,29.23,NW,325,6.3,6.3,23,0.00,,---,0.00,VWS V14.01,2013-02-15 10:15:00,
2013-02-15 04:16:00,30.4,-3.0,29.23,NNW,336,5.8,6.3,23,0.00,,---,0.00,VWS V14.01,2013-02-15 10:16:00,
2013-02-15 04:18:00,30.2,-3.1,29.23,NNE,18,4.0,4.0,23,0.00,,---,0.00,VWS V14.01,2013-02-15 10:18:00,
2013-02-15 04:19:00,30.2,-3.1,29.23,North,353,5.4,8.7,23,0.00,,---,0.00,VWS V14.01,2013-02-15 10:19:00,
2013-02-15 04:20:00,30.2,-3.1,29.23,North,353,5.4,5.4,23,0.00,,---,0.00,VWS V14.01,2013-02-15 10:20:00,
2013-02-15 04:21:00,30.2,-3.1,29.23,North,353,5.4,5.4,23,0.00,,---,0.00,VWS V14.01,2013-02-15 10:21:00,
2013-02-15 04:23:00,30.2,-3.1,29.23,North,10,3.6,3.6,23,0.00,,---,0.00,VWS V14.01,2013-02-15 10:23:00,
2013-02-15 04:24:00,30.2,-3.1,29.23,North,10,3.6,3.6,23,0.00,,---,0.00,VWS V14.01,2013-02-15 10:24:00,
2013-02-15 04:25:00,30.2,-3.1,29.23,NNW,330,7.6,7.6,23,0.00,,---,0.00,VWS V14.01,2013-02-15 10:25:00,
2013-02-15 04:26:00,30.2,-3.1,29.23,North,2,3.6,7.6,23,0.00,,---,0.00,VWS V14.01,2013-02-15 10:26:00,
2013-02-15 04:28:00,30.0,-3.3,29.23,North,350,3.6,3.6,23,0.00,,---,0.00,VWS V14.01,2013-02-15 10:28:00,
2013-02-15 04:29:00,30.0,-3.3,29.23,North,350,3.6,3.6,23,0.00,,---,0.00,VWS V14.01,2013-02-15 10:29:00,
2013-02-15 04:30:00,29.8,-3.4,29.23,North,1,7.6,7.6,23,0.00,,---,0.00,VWS V14.01,2013-02-15 10:30:00,
2013-02-15 04:31:00,29.8,-3.4,29.23,North,1,7.6,7.6,23,0.00,,---,0.00,VWS V14.01,2013-02-15 10:31:00,
2013-02-15 04:33:00,29.8,-3.4,29.23,NNW,335,3.1,3.1,23,0.00,,---,0.00,VWS V14.01,2013-02-15 10:33:00,
2013-02-15 04:35:00,29.7,-3.6,29.23,North,357,4.0,4.0,23,0.00,,---,0.00,VWS V14.01,2013-02-15 10:35:00,
2013-02-15 04:36:00,29.7,-3.6,29.23,North,357,4.0,4.0,23,0.00,,---,0.00,VWS V14.01,2013-02-15 10:36:00,
2013-02-15 04:39:00,29.5,-3.7,29.23,North,0,3.6,3.6,23,0.00,,---,0.00,VWS V14.01,2013-02-15 10:39:00,
2013-02-15 04:40:00,29.5,-3.7,29.23,NNE,13,5.4,5.4,23,0.00,,---,0.00,VWS V14.01,2013-02-15 10:40:00,
2013-02-15 04:41:00,29.5,-3.7,29.23,NNE,21,6.7,6.7,23,0.00,,---,0.00,VWS V14.01,2013-02-15 10:41:00,
2013-02-15 04:44:00,29.3,-3.9,29.23,NNW,342,7.6,7.6,23,0.00,,---,0.00,VWS V14.01,2013-02-15 10:44:00,
2013-02-15 04:45:00,29.3,-3.9,29.23,NNW,342,7.6,7.6,23,0.00,,---,0.00,VWS V14.01,2013-02-15 10:45:00,
2013-02-15 04:46:00,29.1,-4.1,29.23,NNW,336,4.0,4.0,23,0.00,,---,0.00,VWS V14.01,2013-02-15 10:46:00,
2013-02-15 04:49:00,29.1,-4.1,29.23,North,357,3.6,3.6,23,0.00,,---,0.00,VWS V14.01,2013-02-15 10:49:00,
2013-02-15 04:50:00,29.1,-4.1,29.23,North,357,3.6,3.6,23,0.00,,---,0.00,VWS V14.01,2013-02-15 10:50:00,
2013-02-15 04:51:00,28.9,-4.2,29.23,NNW,348,2.2,2.2,23,0.00,,---,0.00,VWS V14.01,2013-02-15 10:51:00,
2013-02-15 04:54:00,28.9,-4.2,29.23,NW,317,2.2,2.2,23,0.00,,---,0.00,VWS V14.01,2013-02-15 10:54:00,
2013-02-15 04:55:00,28.8,-4.3,29.23,ENE,68,3.6,3.6,23,0.00,,---,0.00,VWS V14.01,2013-02-15 10:55:00,
2013-02-15 04:56:00,28.8,-4.3,29.23,ENE,68,3.6,3.6,23,0.00,,---,0.00,VWS V14.01,2013-02-15 10:56:00,
2013-02-15 04:57:00,28.8,-4.3,29.23,ENE,68,3.6,3.6,23,0.00,,---,0.00,VWS V14.01,2013-02-15 10:57:00,
2013-02-15 04:59:00,28.6,-4.5,29.23,NNE,20,5.4,5.8,23,0.00,,---,0.00,VWS V14.01,2013-02-15 10:59:00,
2013-02-15 05:00:00,28.4,-4.7,29.23,NNE,20,5.4,5.4,23,0.00,,---,0.00,VWS V14.01,2013-02-15 11:00:00,
2013-02-15 05:01:00,28.2,-4.8,29.26,North,357,3.6,5.4,23,0.00,,---,0.00,VWS V14.01,2013-02-15 11:01:00,
2013-02-15 05:02:00,28.2,-4.8,29.26,North,357,3.6,3.6,23,0.00,,---,0.00,VWS V14.01,2013-02-15 11:02:00,
2013-02-15 05:04:00,27.9,-5.1,29.26,North,8,4.0,4.0,23,0.00,,---,0.00,VWS V14.01,2013-02-15 11:04:00,
2013-02-15 05:05:00,27.9,-5.1,29.26,North,8,4.0,4.0,23,0.00,,---,0.00,VWS V14.01,2013-02-15 11:05:00,
2013-02-15 05:06:00,27.9,-5.1,29.26,North,8,4.0,4.0,23,0.00,,---,0.00,VWS V14.01,2013-02-15 11:06:00,
2013-02-15 05:07:00,27.9,-5.1,29.26,North,8,4.0,4.0,23,0.00,,---,0.00,VWS V14.01,2013-02-15 11:07:00,
2013-02-15 05:09:00,27.7,-5.3,29.26,West,277,4.0,4.0,23,0.00,,---,0.00,VWS V14.01,2013-02-15 11:09:00,
2013-02-15 05:11:00,27.5,-5.4,29.26,NW,305,4.0,4.0,23,0.00,,---,0.00,VWS V14.01,2013-02-15 11:11:00,
2013-02-15 05:12:00,27.5,-5.4,29.26,NE,44,3.1,4.0,23,0.00,,---,0.00,VWS V14.01,2013-02-15 11:12:00,
2013-02-15 05:14:00,27.5,-5.4,29.26,NE,44,3.1,3.1,23,0.00,,---,0.00,VWS V14.01,2013-02-15 11:14:00,
2013-02-15 05:16:00,27.3,-5.6,29.26,NE,44,3.1,3.1,23,0.00,,---,0.00,VWS V14.01,2013-02-15 11:16:00,
2013-02-15 05:17:00,27.3,-5.6,29.26,NE,44,3.1,3.1,23,0.00,,---,0.00,VWS V14.01,2013-02-15 11:17:00,
2013-02-15 05:19:00,27.0,-5.9,29.26,NW,312,2.7,3.1,23,0.00,,---,0.00,VWS V14.01,2013-02-15 11:19:00,
2013-02-15 05:21:00,27.0,-5.9,29.26,NW,312,0.0,2.7,23,0.00,,---,0.00,VWS V14.01,2013-02-15 11:21:00,
2013-02-15 05:22:00,27.0,-5.9,29.26,NW,312,0.0,0.0,23,0.00,,---,0.00,VWS V14.01,2013-02-15 11:22:00,
2013-02-15 05:24:00,26.8,-6.0,29.26,North,353,4.0,4.0,23,0.00,,---,0.00,VWS V14.01,2013-02-15 11:24:00,
2013-02-15 05:26:00,26.8,-6.0,29.26,North,3,5.4,5.4,23,0.00,,---,0.00,VWS V14.01,2013-02-15 11:26:00,
2013-02-15 05:27:00,26.8,-6.0,29.26,North,3,5.4,5.4,23,0.00,,---,0.00,VWS V14.01,2013-02-15 11:27:00,
2013-02-15 05:30:00,26.6,-5.3,29.26,NW,308,6.3,6.3,24,0.00,,---,0.00,VWS V14.01,2013-02-15 11:30:00,
2013-02-15 05:31:00,26.6,-5.3,29.26,NW,308,6.3,6.3,24,0.00,,---,0.00,VWS V14.01,2013-02-15 11:31:00,
2013-02-15 05:32:00,26.6,-5.3,29.26,NW,326,2.2,6.3,24,0.00,,---,0.00,VWS V14.01,2013-02-15 11:32:00,
2013-02-15 05:35:00,26.4,-5.5,29.26,WNW,284,5.4,5.4,24,0.00,,---,0.00,VWS V14.01,2013-02-15 11:35:00,
2013-02-15 05:36:00,26.4,-5.5,29.26,WNW,284,5.4,5.4,24,0.00,,---,0.00,VWS V14.01,2013-02-15 11:36:00,
2013-02-15 05:37:00,26.2,-5.6,29.26,WSW,245,5.4,5.4,24,0.00,,---,0.00,VWS V14.01,2013-02-15 11:37:00,
2013-02-15 05:40:00,26.2,-5.6,29.26,NW,326,3.6,3.6,24,0.00,,---,0.00,VWS V14.01,2013-02-15 11:40:00,
2013-02-15 05:41:00,26.1,-5.8,29.26,NW,326,3.6,3.6,24,0.00,,---,0.00,VWS V14.01,2013-02-15 11:41:00,
2013-02-15 05:42:00,26.1,-5.8,29.26,NW,326,3.6,3.6,24,0.00,,---,0.00,VWS V14.01,2013-02-15 11:42:00,
2013-02-15 05:45:00,25.9,-5.9,29.26,NNW,337,4.0,4.0,24,0.00,,---,0.00,VWS V14.01,2013-02-15 11:45:00,
2013-02-15 05:46:00,25.9,-5.9,29.26,NNW,337,4.0,4.0,24,0.00,,---,0.00,VWS V14.01,2013-02-15 11:46:00,
2013-02-15 05:47:00,25.9,-5.9,29.26,NW,320,8.7,8.7,24,0.00,,---,0.00,VWS V14.01,2013-02-15 11:47:00,
2013-02-15 05:50:00,25.7,-6.1,29.26,North,353,6.3,6.3,24,0.00,,---,0.00,VWS V14.01,2013-02-15 11:50:00,
2013-02-15 05:51:00,25.7,-6.1,29.26,North,353,6.3,6.3,24,0.00,,---,0.00,VWS V14.01,2013-02-15 11:51:00,
2013-02-15 05:52:00,25.5,-6.2,29.26,North,0,5.8,6.3,24,0.00,,---,0.00,VWS V14.01,2013-02-15 11:52:00,
2013-02-15 05:55:00,25.3,-6.4,29.26,NNW,343,3.6,3.6,24,0.00,,---,0.00,VWS V14.01,2013-02-15 11:55:00,
2013-02-15 05:56:00,25.3,-6.4,29.26,NNE,20,2.7,3.6,24,0.00,,---,0.00,VWS V14.01,2013-02-15 11:56:00,
2013-02-15 05:57:00,25.3,-6.4,29.26,NNE,20,2.7,2.7,24,0.00,,---,0.00,VWS V14.01,2013-02-15 11:57:00,
2013-02-15 06:00:00,25.2,-6.6,29.26,NNE,20,2.7,2.7,24,0.00,,---,0.00,VWS V14.01,2013-02-15 12:00:00,
2013-02-15 06:01:00,25.2,-6.6,29.26,NNW,341,3.6,3.6,24,0.00,,---,0.00,VWS V14.01,2013-02-15 12:01:00,
2013-02-15 06:02:00,25.2,-6.6,29.26,WSW,240,3.1,3.1,24,0.00,,---,0.00,VWS V14.01,2013-02-15 12:02:00,
2013-02-15 06:03:00,25.2,-6.6,29.26,WSW,240,3.1,3.1,24,0.00,,---,0.00,VWS V14.01,2013-02-15 12:03:00,
2013-02-15 06:05:00,25.0,-6.7,29.29,NNW,327,5.4,5.8,24,0.00,,---,0.00,VWS V14.01,2013-02-15 12:05:00,
2013-02-15 06:06:00,25.0,-6.7,29.29,NNW,327,5.4,5.4,24,0.00,,---,0.00,VWS V14.01,2013-02-15 12:06:00,
2013-02-15 06:07:00,24.8,-6.9,29.29,NE,34,4.0,4.0,24,0.00,,---,0.00,VWS V14.01,2013-02-15 12:07:00,
2013-02-15 06:08:00,24.8,-6.9,29.29,NE,34,4.0,4.0,24,0.00,,---,0.00,VWS V14.01,2013-02-15 12:08:00,
2013-02-15 06:10:00,24.8,-6.9,29.29,North,353,6.3,6.3,24,0.00,,---,0.00,VWS V14.01,2013-02-15 12:10:00,
2013-02-15 06:11:00,24.6,-7.0,29.29,North,353,4.9,4.9,24,0.00,,---,0.00,VWS V14.01,2013-02-15 12:11:00,
2013-02-15 06:13:00,24.8,-6.9,29.29,North,353,4.9,4.9,24,0.00,,---,0.00,VWS V14.01,2013-02-15 12:13:00,
2013-02-15 06:15:00,24.6,-7.0,29.29,NNE,19,3.6,3.6,24,0.00,,---,0.00,VWS V14.01,2013-02-15 12:15:00,
2013-02-15 06:16:00,24.6,-7.0,29.29,NNW,338,3.6,3.6,24,0.00,,---,0.00,VWS V14.01,2013-02-15 12:16:00,
2013-02-15 06:18:00,24.6,-7.0,29.29,NNW,338,3.6,3.6,24,0.00,,---,0.00,VWS V14.01,2013-02-15 12:18:00,
2013-02-15 06:20:00,24.4,-7.2,29.29,NNW,336,3.1,3.1,24,0.00,,---,0.00,VWS V14.01,2013-02-15 12:20:00,
2013-02-15 06:21:00,24.4,-7.2,29.29,NNW,336,3.1,3.1,24,0.00,,---,0.00,VWS V14.01,2013-02-15 12:21:00,
2013-02-15 06:23:00,24.4,-7.2,29.29,NNW,336,3.1,3.1,24,0.00,,---,0.00,VWS V14.01,2013-02-15 12:23:00,
2013-02-15 06:25:00,24.4,-7.2,29.29,NW,314,6.3,6.3,24,0.00,,---,0.00,VWS V14.01,2013-02-15 12:25:00,
2013-02-15 06:26:00,24.4,-7.2,29.29,WNW,301,3.1,6.3,24,0.00,,---,0.00,VWS V14.01,2013-02-15 12:26:00,
2013-02-15 06:28:00,24.4,-7.2,29.29,NNW,329,5.8,5.8,24,0.00,,---,0.00,VWS V14.01,2013-02-15 12:28:00,
2013-02-15 06:30:00,24.4,-7.2,29.29,NNE,13,2.7,2.7,24,0.00,,---,0.00,VWS V14.01,2013-02-15 12:30:00,
2013-02-15 06:31:00,24.4,-7.2,29.29,NNW,343,0.0,2.7,24,0.00,,---,0.00,VWS V14.01,2013-02-15 12:31:00,
2013-02-15 06:33:00,24.4,-7.2,29.29,NNW,339,2.2,2.2,24,0.00,,---,0.00,VWS V14.01,2013-02-15 12:33:00,
2013-02-15 06:35:00,24.3,-7.3,29.29,NNW,339,2.2,2.2,24,0.00,,---,0.00,VWS V14.01,2013-02-15 12:35:00,
2013-02-15 06:37:00,24.3,-7.3,29.29,NNW,339,2.2,2.2,24,0.00,,---,0.00,VWS V14.01,2013-02-15 12:37:00,
2013-02-15 06:38:00,24.3,-7.3,29.29,North,357,2.2,4.0,24,0.00,,---,0.00,VWS V14.01,2013-02-15 12:38:00,
2013-02-15 06:40:00,24.3,-7.3,29.29,North,353,2.7,2.7,24,0.00,,---,0.00,VWS V14.01,2013-02-15 12:40:00,
2013-02-15 06:42:00,24.3,-7.3,29.29,NW,324,3.6,3.6,24,0.00,,---,0.00,VWS V14.01,2013-02-15 12:42:00,
2013-02-15 06:43:00,24.3,-7.3,29.29,NNW,329,3.1,3.1,24,0.00,,---,0.00,VWS V14.01,2013-02-15 12:43:00,
2013-02-15 06:46:00,24.1,-7.5,29.29,WNW,299,3.6,3.6,24,0.00,,---,0.00,VWS V14.01,2013-02-15 12:46:00,
2013-02-15 06:47:00,24.1,-7.5,29.29,North,353,2.2,3.6,24,0.00,,---,0.00,VWS V14.01,2013-02-15 12:47:00,
2013-02-15 06:48:00,24.1,-7.5,29.29,North,353,2.2,2.2,24,0.00,,---,0.00,VWS V14.01,2013-02-15 12:48:00,
2013-02-15 06:51:00,24.1,-7.5,29.29,NNE,13,3.6,3.6,24,0.00,,---,0.00,VWS V14.01,2013-02-15 12:51:00,
2013-02-15 06:52:00,24.1,-7.5,29.29,NNE,13,3.6,3.6,24,0.00,,---,0.00,VWS V14.01,2013-02-15 12:52:00,
2013-02-15 06:53:00,24.1,-7.5,29.29,NNE,13,3.6,3.6,24,0.00,,---,0.00,VWS V14.01,2013-02-15 12:53:00,
2013-02-15 06:56:00,23.9,-7.6,29.29,NW,316,4.9,4.9,24,0.00,,---,0.00,VWS V14.01,2013-02-15 12:56:00,
2013-02-15 06:57:00,23.9,-7.6,29.29,NW,323,3.1,3.1,24,0.00,,---,0.00,VWS V14.01,2013-02-15 12:57:00,
2013-02-15 06:58:00,23.9,-7.6,29.29,NW,313,0.0,3.1,24,0.00,,---,0.00,VWS V14.01,2013-02-15 12:58:00,
2013-02-15 07:01:00,23.9,-7.6,29.29,NW,313,0.0,0.0,24,0.00,,---,0.00,VWS V14.01,2013-02-15 13:01:00,
2013-02-15 07:02:00,23.9,-7.6,29.29,NNW,327,2.7,2.7,24,0.00,,---,0.00,VWS V14.01,2013-02-15 13:02:00,
2013-02-15 07:03:00,23.9,-7.6,29.29,NNW,327,2.7,2.7,24,0.00,,---,0.00,VWS V14.01,2013-02-15 13:03:00,
2013-02-15 07:04:00,23.9,-7.6,29.29,NNW,327,2.7,2.7,24,0.00,,---,0.00,VWS V14.01,2013-02-15 13:04:00,
2013-02-15 07:06:00,23.7,-7.8,29.29,NW,326,0.0,2.7,24,0.00,,---,0.00,VWS V14.01,2013-02-15 13:06:00,
2013-02-15 07:07:00,23.7,-7.8,29.29,NW,326,0.0,0.0,24,0.00,,---,0.00,VWS V14.01,2013-02-15 13:07:00,
2013-02-15 07:08:00,23.7,-7.8,29.29,West,268,0.0,0.0,24,0.00,,---,0.00,VWS V14.01,2013-02-15 13:08:00,
2013-02-15 07:09:00,23.7,-7.8,29.29,West,268,0.0,0.0,24,0.00,,---,0.00,VWS V14.01,2013-02-15 13:09:00,
2013-02-15 07:11:00,23.7,-7.8,29.29,West,268,0.0,0.0,24,0.00,,---,0.00,VWS V14.01,2013-02-15 13:11:00,
2013-02-15 07:13:00,23.5,-7.9,29.29,NNW,332,3.6,3.6,24,0.00,,---,0.00,VWS V14.01,2013-02-15 13:13:00,
2013-02-15 07:14:00,23.5,-7.9,29.29,NNW,332,3.6,3.6,24,0.00,,---,0.00,VWS V14.01,2013-02-15 13:14:00,
2013-02-15 07:16:00,23.5,-7.9,29.29,NW,312,4.0,4.0,24,0.00,,---,0.00,VWS V14.01,2013-02-15 13:16:00,
2013-02-15 07:18:00,23.5,-7.9,29.29,NNW,328,3.1,4.0,24,0.00,,---,0.00,VWS V14.01,2013-02-15 13:18:00,
2013-02-15 07:19:00,23.5,-7.9,29.29,NNW,328,3.1,3.1,24,0.00,,---,0.00,VWS V14.01,2013-02-15 13:19:00,
2013-02-15 07:21:00,23.5,-7.9,29.29,NW,326,0.0,3.1,24,0.00,,---,0.00,VWS V14.01,2013-02-15 13:21:00,
2013-02-15 07:23:00,23.4,-8.1,29.29,NNW,345,0.0,0.0,24,0.00,,---,0.00,VWS V14.01,2013-02-15 13:23:00,
2013-02-15 07:24:00,23.4,-8.1,29.29,NNW,345,0.0,0.0,24,0.00,,---,0.00,VWS V14.01,2013-02-15 13:24:00,
2013-02-15 07:26:00,23.2,-8.2,29.29,NNW,336,2.2,2.2,24,0.00,,---,0.00,VWS V14.01,2013-02-15 13:26:00,
2013-02-15 07:28:00,23.2,-8.2,29.29,WNW,297,2.2,2.2,24,0.00,,---,0.00,VWS V14.01,2013-02-15 13:28:00,
2013-02-15 07:29:00,23.2,-8.2,29.32,WNW,297,2.2,2.2,24,0.00,,---,0.00,VWS V14.01,2013-02-15 13:29:00,
2013-02-15 07:31:00,23.2,-8.2,29.32,WNW,297,2.2,2.2,24,0.00,,---,0.00,VWS V14.01,2013-02-15 13:31:00,
2013-02-15 07:33:00,23.0,-7.6,29.32,North,357,3.6,3.6,25,0.00,,---,0.00,VWS V14.01,2013-02-15 13:33:00,
2013-02-15 07:34:00,23.0,-7.6,29.32,SSW,204,2.7,3.6,25,0.00,,---,0.00,VWS V14.01,2013-02-15 13:34:00,
2013-02-15 07:36:00,23.0,-7.6,29.32,NNW,337,2.7,2.7,25,0.00,,---,0.00,VWS V14.01,2013-02-15 13:36:00,
2013-02-15 07:39:00,23.0,-7.6,29.32,WNW,295,0.0,0.0,25,0.00,,---,0.00,VWS V14.01,2013-02-15 13:39:00,
2013-02-15 07:41:00,23.0,-7.6,29.32,WNW,295,0.0,0.0,25,0.00,,---,0.00,VWS V14.01,2013-02-15 13:41:00,
2013-02-15 07:44:00,23.0,-7.6,29.32,NW,310,3.6,3.6,25,0.00,,---,0.00,VWS V14.01,2013-02-15 13:44:00,
2013-02-15 07:46:00,22.8,-7.7,29.32,WSW,249,4.0,4.0,25,0.00,,---,0.00,VWS V14.01,2013-02-15 13:46:00,
2013-02-15 07:49:00,22.8,-7.7,29.32,NW,322,3.1,3.1,25,0.00,,---,0.00,VWS V14.01,2013-02-15 13:49:00,
2013-02-15 07:50:00,22.8,-7.7,29.32,NW,322,3.1,3.1,25,0.00,,---,0.00,VWS V14.01,2013-02-15 13:50:00,
2013-02-15 07:51:00,22.8,-7.7,29.32,North,0,4.9,4.9,25,0.00,,---,0.00,VWS V14.01,2013-02-15 13:51:00,
2013-02-15 07:54:00,22.8,-7.7,29.32,SE,133,2.7,4.9,25,0.00,,---,0.00,VWS V14.01,2013-02-15 13:54:00,
2013-02-15 07:55:00,22.8,-7.7,29.32,SE,133,2.7,2.7,25,0.00,,---,0.00,VWS V14.01,2013-02-15 13:55:00,
2013-02-15 07:56:00,22.6,-7.9,29.32,SE,133,2.7,2.7,25,0.00,,---,0.00,VWS V14.01,2013-02-15 13:56:00,
2013-02-15 07:59:00,22.6,-7.9,29.32,SE,133,2.7,2.7,25,0.00,,---,0.00,VWS V14.01,2013-02-15 13:59:00,
2013-02-15 08:00:00,22.6,-7.9,29.32,WSW,241,0.0,3.1,25,0.00,,---,0.00,VWS V14.01,2013-02-15 14:00:00,
2013-02-15 08:01:00,22.6,-7.9,29.32,WSW,241,0.0,0.0,25,0.00,,---,0.00,VWS V14.01,2013-02-15 14:01:00,
2013-02-15 08:04:00,22.6,-7.9,29.32,North,11,2.7,2.7,25,0.00,,---,0.00,VWS V14.01,2013-02-15 14:04:00,
2013-02-15 08:05:00,22.6,-7.9,29.32,WNW,296,3.6,3.6,25,0.00,,---,0.00,VWS V14.01,2013-02-15 14:05:00,
2013-02-15 08:07:00,22.6,-7.9,29.32,WNW,296,3.6,3.6,25,0.00,,---,0.00,VWS V14.01,2013-02-15 14:07:00,
2013-02-15 08:09:00,22.6,-7.9,29.32,NNE,15,3.6,3.6,25,0.00,,---,0.00,VWS V14.01,2013-02-15 14:09:00,
2013-02-15 08:10:00,22.6,-7.9,29.32,NNE,15,3.6,3.6,25,0.00,,---,0.00,VWS V14.01,2013-02-15 14:10:00,
2013-02-15 08:12:00,22.6,-7.9,29.32,NNE,15,3.6,3.6,25,0.00,,---,0.00,VWS V14.01,2013-02-15 14:12:00,
2013-02-15 08:15:00,22.8,-7.7,29.32,North,3,2.7,2.7,25,0.00,,---,0.00,VWS V14.01,2013-02-15 14:15:00,
2013-02-15 08:17:00,22.8,-7.7,29.32,NW,305,2.2,2.2,25,0.00,,---,0.00,VWS V14.01,2013-02-15 14:17:00,
2013-02-15 08:20:00,22.8,-7.7,29.32,North,3,6.3,6.3,25,0.00,,---,0.00,VWS V14.01,2013-02-15 14:20:00,
2013-02-15 08:22:00,22.8,-7.7,29.32,NNE,12,4.5,4.5,25,0.00,,---,0.00,VWS V14.01,2013-02-15 14:22:00,
2013-02-15 08:25:00,23.0,-7.6,29.32,NNE,12,4.5,4.5,25,0.00,,---,0.00,VWS V14.01,2013-02-15 14:25:00,
2013-02-15 08:27:00,23.0,-7.6,29.32,West,267,5.4,5.4,25,0.00,,---,0.00,VWS V14.01,2013-02-15 14:27:00,
2013-02-15 08:30:00,23.0,-7.6,29.32,West,267,5.4,5.4,25,0.00,,---,0.00,VWS V14.01,2013-02-15 14:30:00,
2013-02-15 08:31:00,23.2,-8.2,29.32,WNW,293,5.8,5.8,24,0.00,,---,0.00,VWS V14.01,2013-02-15 14:31:00,
2013-02-15 08:32:00,23.2,-8.2,29.32,WSW,254,2.2,5.8,24,0.00,,---,0.00,VWS V14.01,2013-02-15 14:32:00,
2013-02-15 08:35:00,23.2,-8.2,29.32,WSW,254,2.2,2.2,24,0.00,,---,0.00,VWS V14.01,2013-02-15 14:35:00,
2013-02-15 08:36:00,23.2,-8.2,29.32,NNW,342,2.2,2.2,24,0.00,,---,0.00,VWS V14.01,2013-02-15 14:36:00,
2013-02-15 08:37:00,23.4,-8.1,29.32,NNW,342,2.2,2.2,24,0.00,,---,0.00,VWS V14.01,2013-02-15 14:37:00,
2013-02-15 08:40:00,23.5,-7.9,29.32,NNW,333,0.0,0.0,24,0.00,,---,0.00,VWS V14.01,2013-02-15 14:40:00,
2013-02-15 08:41:00,23.5,-7.9,29.32,West,259,2.7,2.7,24,0.00,,---,0.00,VWS V14.01,2013-02-15 14:41:00,
2013-02-15 08:42:00,23.5,-7.9,29.32,West,259,2.7,2.7,24,0.00,,---,0.00,VWS V14.01,2013-02-15 14:42:00,
2013-02-15 08:45:00,23.5,-7.9,29.32,North,353,5.8,5.8,24,0.00,,---,0.00,VWS V14.01,2013-02-15 14:45:00,
2013-02-15 08:46:00,23.7,-7.8,29.32,North,353,5.8,5.8,24,0.00,,---,0.00,VWS V14.01,2013-02-15 14:46:00,
2013-02-15 08:47:00,23.7,-7.8,29.32,North,353,5.8,5.8,24,0.00,,---,0.00,VWS V14.01,2013-02-15 14:47:00,
2013-02-15 08:50:00,23.9,-7.6,29.32,NW,308,5.8,5.8,24,0.00,,---,0.00,VWS V14.01,2013-02-15 14:50:00,
2013-02-15 08:51:00,23.9,-7.6,29.32,NNW,345,3.1,5.8,24,0.00,,---,0.00,VWS V14.01,2013-02-15 14:51:00,
2013-02-15 08:52:00,23.9,-7.6,29.32,NW,309,3.1,3.1,24,0.00,,---,0.00,VWS V14.01,2013-02-15 14:52:00,
2013-02-15 08:55:00,24.1,-7.5,29.32,North,353,4.0,4.0,24,0.00,,---,0.00,VWS V14.01,2013-02-15 14:55:00,
2013-02-15 08:56:00,24.3,-7.3,29.32,North,353,4.0,4.0,24,0.00,,---,0.00,VWS V14.01,2013-02-15 14:56:00,
2013-02-15 08:57:00,24.3,-7.3,29.32,North,353,4.0,4.0,24,0.00,,---,0.00,VWS V14.01,2013-02-15 14:57:00,
2013-02-15 09:00:00,24.4,-7.2,29.32,NNW,336,2.7,2.7,24,0.00,,---,0.00,VWS V14.01,2013-02-15 15:00:00,
2013-02-15 09:01:00,24.4,-7.2,29.32,NNW,336,2.7,2.7,24,0.00,,---,0.00,VWS V14.01,2013-02-15 15:01:00,
2013-02-15 09:02:00,24.4,-7.2,29.32,North,353,2.7,2.7,24,0.00,,---,0.00,VWS V14.01,2013-02-15 15:02:00,
2013-02-15 09:05:00,24.6,-7.0,29.32,West,267,4.5,4.5,24,0.00,,---,0.00,VWS V14.01,2013-02-15 15:05:00,
2013-02-15 09:06:00,24.6,-7.0,29.32,West,267,4.5,4.5,24,0.00,,---,0.00,VWS V14.01,2013-02-15 15:06:00,
2013-02-15 09:07:00,24.6,-7.0,29.32,NNW,329,2.7,4.5,24,0.00,,---,0.00,VWS V14.01,2013-02-15 15:07:00,
2013-02-15 09:10:00,24.8,-6.9,29.32,NNW,329,2.7,2.7,24,0.00,,---,0.00,VWS V14.01,2013-02-15 15:10:00,
2013-02-15 09:12:00,25.0,-6.7,29.32,NW,324,0.0,0.0,24,0.00,,---,0.00,VWS V14.01,2013-02-15 15:12:00,
2013-02-15 09:16:00,25.3,-6.4,29.32,NNW,338,4.0,4.0,24,0.00,,---,0.00,VWS V14.01,2013-02-15 15:16:00,
2013-02-15 09:17:00,25.5,-6.2,29.32,North,353,2.7,2.7,24,0.00,,---,0.00,VWS V14.01,2013-02-15 15:17:00,
2013-02-15 09:18:00,25.5,-6.2,29.32,North,353,2.7,2.7,24,0.00,,---,0.00,VWS V14.01,2013-02-15 15:18:00,
2013-02-15 09:21:00,25.7,-6.1,29.32,NW,320,4.0,4.0,24,0.00,,---,0.00,VWS V14.01,2013-02-15 15:21:00,
2013-02-15 09:22:00,25.7,-6.1,29.32,NNE,26,4.0,4.0,24,0.00,,---,0.00,VWS V14.01,2013-02-15 15:22:00,
2013-02-15 09:23:00,25.7,-6.1,29.32,East,80,2.7,2.7,24,0.00,,---,0.00,VWS V14.01,2013-02-15 15:23:00,
2013-02-15 09:26:00,26.1,-5.8,29.32,North,3,3.6,3.6,24,0.00,,---,0.00,VWS V14.01,2013-02-15 15:26:00,
2013-02-15 09:27:00,26.1,-5.8,29.32,North,6,2.7,3.6,24,0.00,,---,0.00,VWS V14.01,2013-02-15 15:27:00,
2013-02-15 09:28:00,26.2,-5.6,29.32,NNW,333,3.6,3.6,24,0.00,,---,0.00,VWS V14.01,2013-02-15 15:28:00,
2013-02-15 09:31:00,26.6,-5.3,29.32,North,353,0.0,2.7,24,0.00,,---,0.00,VWS V14.01,2013-02-15 15:31:00,
2013-02-15 09:32:00,26.6,-5.3,29.32,North,353,0.0,0.0,24,0.00,,---,0.00,VWS V14.01,2013-02-15 15:32:00,
2013-02-15 09:33:00,26.8,-6.0,29.32,North,353,0.0,0.0,23,0.00,,---,0.00,VWS V14.01,2013-02-15 15:33:00,
2013-02-15 09:36:00,27.0,-5.9,29.32,NE,50,2.2,2.2,23,0.00,,---,0.00,VWS V14.01,2013-02-15 15:36:00,
2013-02-15 09:37:00,27.0,-5.9,29.32,SW,218,3.1,3.1,23,0.00,,---,0.00,VWS V14.01,2013-02-15 15:37:00,
2013-02-15 09:38:00,27.1,-5.7,29.32,North,1,2.7,3.1,23,0.00,,---,0.00,VWS V14.01,2013-02-15 15:38:00,
2013-02-15 09:41:00,27.3,-5.6,29.32,WNW,301,0.0,0.0,23,0.00,,---,0.00,VWS V14.01,2013-02-15 15:41:00,
2013-02-15 09:42:00,27.5,-5.4,29.32,WNW,301,0.0,0.0,23,0.00,,---,0.00,VWS V14.01,2013-02-15 15:42:00,
2013-02-15 09:43:00,27.5,-5.4,29.32,North,353,2.7,2.7,23,0.00,,---,0.00,VWS V14.01,2013-02-15 15:43:00,
2013-02-15 09:46:00,27.9,-5.1,29.32,NE,38,0.0,0.0,23,0.00,,---,0.00,VWS V14.01,2013-02-15 15:46:00,
2013-02-15 09:47:00,27.9,-5.1,29.32,NE,38,0.0,0.0,23,0.00,,---,0.00,VWS V14.01,2013-02-15 15:47:00,
2013-02-15 09:48:00,27.9,-5.1,29.32,NE,38,0.0,0.0,23,0.00,,---,0.00,VWS V14.01,2013-02-15 15:48:00,
2013-02-15 09:51:00,27.9,-5.1,29.32,WNW,298,0.0,0.0,23,0.00,,---,0.00,VWS V14.01,2013-02-15 15:51:00,
2013-02-15 09:52:00,27.9,-5.1,29.32,SW,216,2.7,2.7,23,0.00,,---,0.00,VWS V14.01,2013-02-15 15:52:00,
2013-02-15 09:53:00,27.9,-5.1,29.32,SW,216,2.7,2.7,23,0.00,,---,0.00,VWS V14.01,2013-02-15 15:53:00,
2013-02-15 09:54:00,27.9,-5.1,29.32,SW,216,2.7,2.7,23,0.00,,---,0.00,VWS V14.01,2013-02-15 15:54:00,
2013-02-15 09:56:00,28.0,-5.0,29.32,SW,224,4.9,4.9,23,0.00,,---,0.00,VWS V14.01,2013-02-15 15:56:00,
2013-02-15 09:57:00,28.0,-5.0,29.32,SW,222,3.1,3.1,23,0.00,,---,0.00,VWS V14.01,2013-02-15 15:57:00,
2013-02-15 09:58:00,28.0,-5.0,29.32,SW,234,0.0,0.0,23,0.00,,---,0.00,VWS V14.01,2013-02-15 15:58:00,
2013-02-15 09:59:00,28.0,-5.0,29.32,SW,234,0.0,0.0,23,0.00,,---,0.00,VWS V14.01,2013-02-15 15:59:00,
2013-02-15 10:02:00,28.4,-4.7,29.32,NW,325,5.8,5.8,23,0.00,,---,0.00,VWS V14.01,2013-02-15 16:02:00,
2013-02-15 10:03:00,28.4,-4.7,29.32,NW,316,8.3,8.3,23,0.00,,---,0.00,VWS V14.01,2013-02-15 16:03:00,
2013-02-15 10:04:00,28.4,-4.7,29.32,NW,316,8.3,8.3,23,0.00,,---,0.00,VWS V14.01,2013-02-15 16:04:00,
2013-02-15 10:07:00,28.4,-4.7,29.32,North,6,3.6,3.6,23,0.00,,---,0.00,VWS V14.01,2013-02-15 16:07:00,
2013-02-15 10:08:00,28.6,-4.5,29.32,West,272,3.6,3.6,23,0.00,,---,0.00,VWS V14.01,2013-02-15 16:08:00,
2013-02-15 10:09:00,28.6,-4.5,29.32,WNW,294,2.7,3.6,23,0.00,,---,0.00,VWS V14.01,2013-02-15 16:09:00,
2013-02-15 10:12:00,28.8,-4.3,29.32,SSW,213,2.7,2.7,23,0.00,,---,0.00,VWS V14.01,2013-02-15 16:12:00,
2013-02-15 10:13:00,28.8,-4.3,29.32,WSW,240,2.7,2.7,23,0.00,,---,0.00,VWS V14.01,2013-02-15 16:13:00,
2013-02-15 10:14:00,28.8,-4.3,29.32,WSW,240,2.7,2.7,23,0.00,,---,0.00,VWS V14.01,2013-02-15 16:14:00,
2013-02-15 10:17:00,28.9,-4.2,29.32,North,357,2.2,2.7,23,0.00,,---,0.00,VWS V14.01,2013-02-15 16:17:00,
2013-02-15 10:18:00,28.9,-4.2,29.32,NNW,337,2.2,2.2,23,0.00,,---,0.00,VWS V14.01,2013-02-15 16:18:00,
2013-02-15 10:19:00,29.1,-4.1,29.32,WSW,244,2.2,2.2,23,0.00,,---,0.00,VWS V14.01,2013-02-15 16:19:00,
2013-02-15 10:22:00,29.3,-3.9,29.32,WSW,241,0.0,2.7,23,0.00,,---,0.00,VWS V14.01,2013-02-15 16:22:00,
2013-02-15 10:24:00,29.5,-3.7,29.32,WSW,241,0.0,0.0,23,0.00,,---,0.00,VWS V14.01,2013-02-15 16:24:00,
2013-02-15 10:27:00,29.5,-3.7,29.32,North,3,5.4,5.4,23,0.00,,---,0.00,VWS V14.01,2013-02-15 16:27:00,
2013-02-15 10:29:00,29.5,-3.7,29.32,North,6,0.0,5.4,23,0.00,,---,0.00,VWS V14.01,2013-02-15 16:29:00,
2013-02-15 10:30:00,29.5,-3.7,29.32,North,6,0.0,0.0,23,0.00,,---,0.00,VWS V14.01,2013-02-15 16:30:00,
2013-02-15 10:32:00,29.7,-3.6,29.32,North,357,0.0,0.0,23,0.00,,---,0.00,VWS V14.01,2013-02-15 16:32:00,
2013-02-15 10:33:00,29.7,-3.6,29.32,WSW,244,4.0,4.0,23,0.00,,---,0.00,VWS V14.01,2013-02-15 16:33:00,
2013-02-15 10:34:00,29.8,-3.4,29.32,WSW,244,4.0,4.0,23,0.00,,---,0.00,VWS V14.01,2013-02-15 16:34:00,
2013-02-15 10:35:00,29.8,-3.4,29.32,NW,323,2.2,4.0,23,0.00,,---,0.00,VWS V14.01,2013-02-15 16:35:00,
2013-02-15 10:37:00,29.8,-3.4,29.32,North,8,2.7,2.7,23,0.00,,---,0.00,VWS V14.01,2013-02-15 16:37:00,
2013-02-15 10:38:00,29.8,-3.4,29.32,South,188,2.7,2.7,23,0.00,,---,0.00,VWS V14.01,2013-02-15 16:38:00,
2013-02-15 10:39:00,29.8,-3.4,29.32,South,188,2.7,2.7,23,0.00,,---,0.00,VWS V14.01,2013-02-15 16:39:00,
2013-02-15 10:40:00,30.0,-3.3,29.32,South,188,2.7,2.7,23,0.00,,---,0.00,VWS V14.01,2013-02-15 16:40:00,
2013-02-15 10:42:00,30.2,-3.1,29.32,NW,318,3.1,3.1,23,0.00,,---,0.00,VWS V14.01,2013-02-15 16:42:00,
2013-02-15 10:43:00,30.2,-3.1,29.32,NW,318,3.1,3.1,23,0.00,,---,0.00,VWS V14.01,2013-02-15 16:43:00,
2013-02-15 10:44:00,30.2,-3.1,29.32,West,280,0.0,2.7,23,0.00,,---,0.00,VWS V14.01,2013-02-15 16:44:00,
2013-02-15 10:45:00,30.4,-3.0,29.32,West,280,0.0,2.7,23,0.00,,---,0.00,VWS V14.01,2013-02-15 16:45:00,
2013-02-15 10:47:00,30.6,-2.8,29.32,WSW,251,0.0,0.0,23,0.00,,---,0.00,VWS V14.01,2013-02-15 16:47:00,
2013-02-15 10:48:00,30.4,-3.0,29.32,WSW,251,0.0,0.0,23,0.00,,---,0.00,VWS V14.01,2013-02-15 16:48:00,
2013-02-15 10:49:00,30.6,-2.8,29.32,NNW,342,2.7,2.7,23,0.00,,---,0.00,VWS V14.01,2013-02-15 16:49:00,
2013-02-15 10:50:00,30.7,-2.7,29.32,NNW,342,2.7,2.7,23,0.00,,---,0.00,VWS V14.01,2013-02-15 16:50:00,
2013-02-15 10:52:00,30.7,-2.7,29.32,North,353,3.1,3.1,23,0.00,,---,0.00,VWS V14.01,2013-02-15 16:52:00,
2013-02-15 10:53:00,30.7,-2.7,29.32,SW,232,3.6,3.6,23,0.00,,---,0.00,VWS V14.01,2013-02-15 16:53:00,
2013-02-15 10:54:00,30.7,-2.7,29.32,NNE,14,3.1,3.6,23,0.00,,---,0.00,VWS V14.01,2013-02-15 16:54:00,
2013-02-15 10:55:00,30.7,-2.7,29.32,NNE,14,3.1,3.1,23,0.00,,---,0.00,VWS V14.01,2013-02-15 16:55:00,
2013-02-15 10:57:00,30.7,-2.7,29.32,NW,320,3.1,3.1,23,0.00,,---,0.00,VWS V14.01,2013-02-15 16:57:00,
2013-02-15 10:58:00,30.9,-2.5,29.32,East,82,3.1,5.8,23,0.00,,---,0.00,VWS V14.01,2013-02-15 16:58:00,
2013-02-15 10:59:00,30.9,-2.5,29.32,East,82,3.1,3.1,23,0.00,,---,0.00,VWS V14.01,2013-02-15 16:59:00,
2013-02-15 11:00:00,30.9,-2.5,29.32,East,82,3.1,3.1,23,0.00,,---,0.00,VWS V14.01,2013-02-15 17:00:00,
2013-02-15 11:02:00,31.1,-2.4,29.32,SW,230,3.1,3.1,23,0.00,,---,0.00,VWS V14.01,2013-02-15 17:02:00,
2013-02-15 11:04:00,31.1,-2.4,29.32,SW,231,3.1,3.1,23,0.00,,---,0.00,VWS V14.01,2013-02-15 17:04:00,
2013-02-15 11:05:00,31.1,-2.4,29.32,SW,231,3.1,3.1,23,0.00,,---,0.00,VWS V14.01,2013-02-15 17:05:00,
2013-02-15 11:07:00,31.3,-2.2,29.32,North,0,2.2,2.2,23,0.00,,---,0.00,VWS V14.01,2013-02-15 17:07:00,
2013-02-15 11:09:00,31.3,-2.2,29.32,NNW,331,6.3,6.3,23,0.00,,---,0.00,VWS V14.01,2013-02-15 17:09:00,
2013-02-15 11:10:00,31.3,-2.2,29.32,NNW,331,6.3,6.3,23,0.00,,---,0.00,VWS V14.01,2013-02-15 17:10:00,
2013-02-15 11:11:00,31.3,-2.2,29.32,NNW,331,6.3,6.3,23,0.00,,---,0.00,VWS V14.01,2013-02-15 17:11:00,
2013-02-15 11:13:00,31.3,-2.2,29.32,SW,214,3.1,3.1,23,0.00,,---,0.00,VWS V14.01,2013-02-15 17:13:00,
2013-02-15 11:14:00,31.5,-2.0,29.32,SW,214,3.1,3.1,23,0.00,,---,0.00,VWS V14.01,2013-02-15 17:14:00,
2013-02-15 11:15:00,31.5,-2.0,29.32,NNW,338,4.0,4.0,23,0.00,,---,0.00,VWS V14.01,2013-02-15 17:15:00,
2013-02-15 11:16:00,31.5,-2.0,29.32,NE,47,0.0,4.0,23,0.00,,---,0.00,VWS V14.01,2013-02-15 17:16:00,
2013-02-15 11:18:00,31.5,-2.0,29.32,North,349,5.8,5.8,23,0.00,,---,0.00,VWS V14.01,2013-02-15 17:18:00,
2013-02-15 11:19:00,31.6,-1.9,29.32,North,349,5.8,5.8,23,0.00,,---,0.00,VWS V14.01,2013-02-15 17:19:00,
2013-02-15 11:20:00,31.6,-1.9,29.32,NNW,338,6.3,6.3,23,0.00,,---,0.00,VWS V14.01,2013-02-15 17:20:00,
2013-02-15 11:21:00,31.5,-2.0,29.32,NNW,338,6.3,6.3,23,0.00,,---,0.00,VWS V14.01,2013-02-15 17:21:00,
2013-02-15 11:23:00,31.5,-2.0,29.32,NNW,338,6.3,6.3,23,0.00,,---,0.00,VWS V14.01,2013-02-15 17:23:00,
2013-02-15 11:24:00,31.5,-2.0,29.32,North,357,3.1,3.6,23,0.00,,---,0.00,VWS V14.01,2013-02-15 17:24:00,
2013-02-15 11:25:00,31.5,-2.0,29.32,NNE,24,3.6,3.6,23,0.00,,---,0.00,VWS V14.01,2013-02-15 17:25:00,
2013-02-15 11:26:00,31.5,-2.0,29.32,NNE,24,3.6,3.6,23,0.00,,---,0.00,VWS V14.01,2013-02-15 17:26:00,
2013-02-15 11:28:00,31.8,-1.8,29.32,NNE,33,3.1,4.0,23,0.00,,---,0.00,VWS V14.01,2013-02-15 17:28:00,
2013-02-15 11:29:00,31.8,-1.8,29.32,West,261,2.7,2.7,23,0.00,,---,0.00,VWS V14.01,2013-02-15 17:29:00,
2013-02-15 11:30:00,32.2,-1.4,29.32,West,261,2.7,2.7,23,0.00,,---,0.00,VWS V14.01,2013-02-15 17:30:00,
2013-02-15 11:31:00,32.0,-1.6,29.32,West,261,2.7,2.7,23,0.00,,---,0.00,VWS V14.01,2013-02-15 17:31:00,
2013-02-15 11:33:00,32.2,-1.4,29.32,West,261,2.7,2.7,23,0.00,,---,0.00,VWS V14.01,2013-02-15 17:33:00,
2013-02-15 11:34:00,32.2,-1.4,29.32,West,261,2.7,2.7,23,0.00,,---,0.00,VWS V14.01,2013-02-15 17:34:00,
2013-02-15 11:35:00,32.2,-1.4,29.32,NW,324,2.7,2.7,23,0.00,,---,0.00,VWS V14.01,2013-02-15 17:35:00,
2013-02-15 11:36:00,32.4,-1.3,29.32,SSW,208,5.4,5.4,23,0.00,,---,0.00,VWS V14.01,2013-02-15 17:36:00,
2013-02-15 11:38:00,32.5,-1.1,29.32,SW,224,3.1,5.8,23,0.00,,---,0.00,VWS V14.01,2013-02-15 17:38:00,
2013-02-15 11:40:00,32.5,-1.1,29.32,SW,224,3.1,3.1,23,0.00,,---,0.00,VWS V14.01,2013-02-15 17:40:00,
2013-02-15 11:41:00,32.5,-1.1,29.32,NW,324,4.0,4.0,23,0.00,,---,0.00,VWS V14.01,2013-02-15 17:41:00,
2013-02-15 11:43:00,32.5,-1.1,29.32,North,353,4.9,4.9,23,0.00,,---,0.00,VWS V14.01,2013-02-15 17:43:00,
2013-02-15 11:45:00,32.5,-1.1,29.32,North,0,5.8,5.8,23,0.00,,---,0.00,VWS V14.01,2013-02-15 17:45:00,
2013-02-15 11:46:00,32.5,-1.1,29.32,North,0,5.8,5.8,23,0.00,,---,0.00,VWS V14.01,2013-02-15 17:46:00,
2013-02-15 11:48:00,32.7,-1.0,29.32,WSW,237,2.7,2.7,23,0.00,,---,0.00,VWS V14.01,2013-02-15 17:48:00,
2013-02-15 11:50:00,32.9,-0.8,29.32,WSW,237,2.7,2.7,23,0.00,,---,0.00,VWS V14.01,2013-02-15 17:50:00,
2013-02-15 11:51:00,33.1,-0.7,29.32,NNW,344,0.0,2.7,23,0.00,,---,0.00,VWS V14.01,2013-02-15 17:51:00,
2013-02-15 11:54:00,33.3,-0.5,29.32,WSW,258,5.8,5.8,23,0.00,,---,0.00,VWS V14.01,2013-02-15 17:54:00,
2013-02-15 11:55:00,33.3,-0.5,29.32,WSW,258,5.8,5.8,23,0.00,,---,0.00,VWS V14.01,2013-02-15 17:55:00,
2013-02-15 11:56:00,33.4,-0.4,29.32,SW,230,6.3,6.3,23,0.00,,---,0.00,VWS V14.01,2013-02-15 17:56:00,
2013-02-15 11:59:00,33.4,-0.4,29.32,WSW,239,3.1,3.1,23,0.00,,---,0.00,VWS V14.01,2013-02-15 17:59:00,
2013-02-15 12:00:00,33.6,-0.2,29.32,North,0,5.4,5.4,23,0.00,,---,0.00,VWS V14.01,2013-02-15 18:00:00,
2013-02-15 12:01:00,33.6,-0.2,29.32,North,0,5.4,5.4,23,0.00,,---,0.00,VWS V14.01,2013-02-15 18:01:00,
2013-02-15 12:04:00,33.6,-0.2,29.32,North,3,3.6,3.6,23,0.00,,---,0.00,VWS V14.01,2013-02-15 18:04:00,
2013-02-15 12:06:00,33.6,-0.2,29.32,NW,326,3.6,3.6,23,0.00,,---,0.00,VWS V14.01,2013-02-15 18:06:00,
2013-02-15 12:09:00,33.6,-0.2,29.32,North,353,4.0,4.0,23,0.00,,---,0.00,VWS V14.01,2013-02-15 18:09:00,
2013-02-15 12:11:00,33.8,-1.0,29.32,NW,306,0.0,0.0,22,0.00,,---,0.00,VWS V14.01,2013-02-15 18:11:00,
2013-02-15 12:14:00,33.8,-1.0,29.32,WSW,251,2.2,2.2,22,0.00,,---,0.00,VWS V14.01,2013-02-15 18:14:00,
2013-02-15 12:16:00,33.8,-1.0,29.32,South,179,4.0,4.0,22,0.00,,---,0.00,VWS V14.01,2013-02-15 18:16:00,
2013-02-15 12:17:00,33.8,-1.0,29.32,South,179,4.0,4.0,22,0.00,,---,0.00,VWS V14.01,2013-02-15 18:17:00,
2013-02-15 12:19:00,33.6,-0.2,29.32,NE,34,4.0,4.0,23,0.00,,---,0.00,VWS V14.01,2013-02-15 18:19:00,
2013-02-15 12:21:00,33.8,-1.0,29.32,North,1,3.1,3.1,22,0.00,,---,0.00,VWS V14.01,2013-02-15 18:21:00,
2013-02-15 12:22:00,34.0,-0.9,29.32,WSW,258,3.1,3.1,22,0.00,,---,0.00,VWS V14.01,2013-02-15 18:22:00,
2013-02-15 12:24:00,34.2,-0.7,29.32,SW,234,3.6,3.6,22,0.00,,---,0.00,VWS V14.01,2013-02-15 18:24:00,
2013-02-15 12:26:00,34.2,-0.7,29.32,SW,234,3.6,3.6,22,0.00,,---,0.00,VWS V14.01,2013-02-15 18:26:00,
2013-02-15 12:27:00,34.2,-0.7,29.32,ESE,112,4.0,4.0,22,0.00,,---,0.00,VWS V14.01,2013-02-15 18:27:00,
2013-02-15 12:29:00,34.3,-0.6,29.29,ESE,112,4.0,4.0,22,0.00,,---,0.00,VWS V14.01,2013-02-15 18:29:00,
2013-02-15 12:31:00,34.3,-0.6,29.29,NE,39,2.7,2.7,22,0.00,,---,0.00,VWS V14.01,2013-02-15 18:31:00,
2013-02-15 12:32:00,34.5,-0.4,29.29,NE,39,2.7,2.7,22,0.00,,---,0.00,VWS V14.01,2013-02-15 18:32:00,
2013-02-15 12:34:00,34.5,-0.4,29.29,NE,49,2.2,2.2,22,0.00,,---,0.00,VWS V14.01,2013-02-15 18:34:00,
2013-02-15 12:36:00,34.5,-0.4,29.29,WNW,282,4.0,4.0,22,0.00,,---,0.00,VWS V14.01,2013-02-15 18:36:00,
2013-02-15 12:37:00,34.7,-0.2,29.29,WNW,282,4.0,4.0,22,0.00,,---,0.00,VWS V14.01,2013-02-15 18:37:00,
2013-02-15 12:39:00,34.7,-0.2,29.29,NNE,15,2.7,2.7,22,0.00,,---,0.00,VWS V14.01,2013-02-15 18:39:00,
2013-02-15 12:41:00,34.9,-0.1,29.29,NNE,15,2.7,2.7,22,0.00,,---,0.00,VWS V14.01,2013-02-15 18:41:00,
2013-02-15 12:42:00,34.9,-0.1,29.29,SSW,212,3.6,3.6,22,0.00,,---,0.00,VWS V14.01,2013-02-15 18:42:00,
2013-02-15 12:44:00,34.9,-0.1,29.29,NW,317,2.7,2.7,22,0.00,,---,0.00,VWS V14.01,2013-02-15 18:44:00,
2013-02-15 12:46:00,35.1,0.1,29.29,NW,317,2.7,2.7,22,0.00,,---,0.00,VWS V14.01,2013-02-15 18:46:00,
2013-02-15 12:47:00,35.1,0.1,29.29,NE,35,4.0,4.0,22,0.00,,---,0.00,VWS V14.01,2013-02-15 18:47:00,
2013-02-15 12:49:00,35.1,0.1,29.29,West,263,0.0,0.0,22,0.00,,---,0.00,VWS V14.01,2013-02-15 18:49:00,
2013-02-15 12:51:00,35.2,0.2,29.29,West,267,2.2,2.2,22,0.00,,---,0.00,VWS V14.01,2013-02-15 18:51:00,
2013-02-15 12:52:00,35.2,0.2,29.29,West,267,2.2,2.2,22,0.00,,---,0.00,VWS V14.01,2013-02-15 18:52:00,
2013-02-15 12:54:00,35.2,0.2,29.29,West,267,2.2,2.2,22,0.00,,---,0.00,VWS V14.01,2013-02-15 18:54:00,
2013-02-15 12:56:00,35.2,0.2,29.29,West,267,2.2,2.2,22,0.00,,---,0.00,VWS V14.01,2013-02-15 18:56:00,
2013-02-15 12:57:00,35.2,0.2,29.29,West,267,2.2,2.2,22,0.00,,---,0.00,VWS V14.01,2013-02-15 18:57:00,
2013-02-15 12:59:00,35.2,0.2,29.29,SW,235,2.7,2.7,22,0.00,,---,0.00,VWS V14.01,2013-02-15 18:59:00,
2013-02-15 13:01:00,35.2,0.2,29.29,SW,235,2.7,2.7,22,0.00,,---,0.00,VWS V14.01,2013-02-15 19:01:00,
2013-02-15 13:03:00,35.4,0.4,29.29,SW,217,4.9,4.9,22,0.00,,---,0.00,VWS V14.01,2013-02-15 19:03:00,
2013-02-15 13:04:00,35.4,0.4,29.29,SW,217,4.9,4.9,22,0.00,,---,0.00,VWS V14.01,2013-02-15 19:04:00,
2013-02-15 13:06:00,35.6,0.5,29.29,SW,230,3.6,3.6,22,0.00,,---,0.00,VWS V14.01,2013-02-15 19:06:00,
2013-02-15 13:08:00,35.6,0.5,29.29,SW,230,3.6,3.6,22,0.00,,---,0.00,VWS V14.01,2013-02-15 19:08:00,
2013-02-15 13:10:00,35.8,0.7,29.29,SW,230,3.6,3.6,22,0.00,,---,0.00,VWS V14.01,2013-02-15 19:10:00,
2013-02-15 13:11:00,35.8,0.7,29.29,West,261,5.4,5.4,22,0.00,,---,0.00,VWS V14.01,2013-02-15 19:11:00,
2013-02-15 13:13:00,36.0,0.8,29.29,West,261,5.4,5.4,22,0.00,,---,0.00,VWS V14.01,2013-02-15 19:13:00,
2013-02-15 13:14:00,36.0,0.8,29.29,West,261,5.4,5.4,22,0.00,,---,0.00,VWS V14.01,2013-02-15 19:14:00,
2013-02-15 13:15:00,36.0,0.8,29.29,West,261,5.4,5.4,22,0.00,,---,0.00,VWS V14.01,2013-02-15 19:15:00,
2013-02-15 13:16:00,35.8,0.7,29.29,SW,223,2.7,2.7,22,0.00,,---,0.00,VWS V14.01,2013-02-15 19:16:00,
2013-02-15 13:18:00,35.8,0.7,29.29,North,7,4.9,4.9,22,0.00,,---,0.00,VWS V14.01,2013-02-15 19:18:00,
2013-02-15 13:19:00,35.8,0.7,29.29,North,7,4.9,4.9,22,0.00,,---,0.00,VWS V14.01,2013-02-15 19:19:00,
2013-02-15 13:20:00,35.8,0.7,29.29,NNE,14,4.0,4.0,22,0.00,,---,0.00,VWS V14.01,2013-02-15 19:20:00,
2013-02-15 13:21:00,35.8,0.7,29.29,NNE,14,4.0,4.0,22,0.00,,---,0.00,VWS V14.01,2013-02-15 19:21:00,
2013-02-15 13:23:00,35.8,0.7,29.29,NNE,14,4.0,4.0,22,0.00,,---,0.00,VWS V14.01,2013-02-15 19:23:00,
2013-02-15 13:24:00,35.8,0.7,29.29,NNE,14,4.0,4.0,22,0.00,,---,0.00,VWS V14.01,2013-02-15 19:24:00,
2013-02-15 13:25:00,36.1,1.0,29.29,WSW,238,5.8,5.8,22,0.00,,---,0.00,VWS V14.01,2013-02-15 19:25:00,
2013-02-15 13:26:00,36.1,1.0,29.29,WSW,238,5.8,5.8,22,0.00,,---,0.00,VWS V14.01,2013-02-15 19:26:00,
2013-02-15 13:29:00,36.1,1.0,29.29,West,259,3.1,5.8,22,0.00,,---,0.00,VWS V14.01,2013-02-15 19:29:00,
2013-02-15 13:30:00,36.1,1.0,29.29,West,259,3.1,3.1,22,0.00,,---,0.00,VWS V14.01,2013-02-15 19:30:00,
2013-02-15 13:31:00,36.1,1.0,29.29,West,259,3.1,3.1,22,0.00,,---,0.00,VWS V14.01,2013-02-15 19:31:00,
2013-02-15 13:34:00,36.3,1.1,29.29,West,259,3.1,3.1,22,0.00,,---,0.00,VWS V14.01,2013-02-15 19:34:00,
2013-02-15 13:35:00,36.3,1.1,29.29,West,259,3.1,3.1,22,0.00,,---,0.00,VWS V14.01,2013-02-15 19:35:00,
2013-02-15 13:37:00,36.3,1.1,29.29,West,259,3.1,3.1,22,0.00,,---,0.00,VWS V14.01,2013-02-15 19:37:00,
2013-02-15 13:39:00,36.5,1.3,29.29,North,357,0.0,2.7,22,0.00,,---,0.00,VWS V14.01,2013-02-15 19:39:00,
2013-02-15 13:40:00,36.5,1.3,29.29,North,357,0.0,0.0,22,0.00,,---,0.00,VWS V14.01,2013-02-15 19:40:00,
2013-02-15 13:42:00,36.7,1.4,29.29,South,188,2.2,2.2,22,0.00,,---,0.00,VWS V14.01,2013-02-15 19:42:00,
2013-02-15 13:44:00,36.7,1.4,29.29,South,188,2.2,2.2,22,0.00,,---,0.00,VWS V14.01,2013-02-15 19:44:00,
2013-02-15 13:45:00,36.7,1.4,29.26,South,188,2.2,2.2,22,0.00,,---,0.00,VWS V14.01,2013-02-15 19:45:00,
2013-02-15 13:47:00,36.7,1.4,29.26,South,188,2.2,2.2,22,0.00,,---,0.00,VWS V14.01,2013-02-15 19:47:00,
2013-02-15 13:49:00,36.7,1.4,29.26,South,188,2.2,2.2,22,0.00,,---,0.00,VWS V14.01,2013-02-15 19:49:00,
2013-02-15 13:50:00,36.7,1.4,29.26,SW,220,6.3,6.3,22,0.00,,---,0.00,VWS V14.01,2013-02-15 19:50:00,
2013-02-15 13:52:00,36.7,1.4,29.26,SSW,208,6.3,6.3,22,0.00,,---,0.00,VWS V14.01,2013-02-15 19:52:00,
2013-02-15 13:54:00,36.7,1.4,29.26,SW,216,2.2,2.2,22,0.00,,---,0.00,VWS V14.01,2013-02-15 19:54:00,
2013-02-15 13:55:00,36.9,1.6,29.26,WSW,249,4.9,4.9,22,0.00,,---,0.00,VWS V14.01,2013-02-15 19:55:00,
2013-02-15 13:57:00,36.7,1.4,29.26,WSW,249,4.9,4.9,22,0.00,,---,0.00,VWS V14.01,2013-02-15 19:57:00,
2013-02-15 13:59:00,36.7,1.4,29.26,WSW,249,4.9,4.9,22,0.00,,---,0.00,VWS V14.01,2013-02-15 19:59:00,
2013-02-15 14:00:00,36.7,1.4,29.26,WSW,249,4.9,4.9,22,0.00,,---,0.00,VWS V14.01,2013-02-15 20:00:00,
2013-02-15 14:02:00,36.9,1.6,29.26,WSW,249,4.9,4.9,22,0.00,,---,0.00,VWS V14.01,2013-02-15 20:02:00,
2013-02-15 14:05:00,36.9,1.6,29.26,NW,322,3.6,3.6,22,0.00,,---,0.00,VWS V14.01,2013-02-15 20:05:00,
2013-02-15 14:07:00,37.0,1.7,29.26,NW,322,3.6,3.6,22,0.00,,---,0.00,VWS V14.01,2013-02-15 20:07:00,
2013-02-15 14:10:00,36.9,1.6,29.26,NW,311,2.7,2.7,22,0.00,,---,0.00,VWS V14.01,2013-02-15 20:10:00,
2013-02-15 14:12:00,36.9,1.6,29.26,South,188,4.0,4.0,22,0.00,,---,0.00,VWS V14.01,2013-02-15 20:12:00,
2013-02-15 14:15:00,36.7,1.4,29.26,South,188,4.0,4.0,22,0.00,,---,0.00,VWS V14.01,2013-02-15 20:15:00,
2013-02-15 14:18:00,37.0,1.7,29.26,North,357,2.2,2.2,22,0.00,,---,0.00,VWS V14.01,2013-02-15 20:18:00,
2013-02-15 14:20:00,36.9,1.6,29.26,North,357,2.2,2.2,22,0.00,,---,0.00,VWS V14.01,2013-02-15 20:20:00,
2013-02-15 14:22:00,36.9,1.6,29.26,WNW,301,7.6,7.6,22,0.00,,---,0.00,VWS V14.01,2013-02-15 20:22:00,
2013-02-15 14:25:00,36.9,1.6,29.26,NNE,30,2.7,2.7,22,0.00,,---,0.00,VWS V14.01,2013-02-15 20:25:00,
2013-02-15 14:26:00,36.9,1.6,29.26,NNW,330,3.1,3.1,22,0.00,,---,0.00,VWS V14.01,2013-02-15 20:26:00,
2013-02-15 14:28:00,36.9,1.6,29.26,NNW,330,3.1,3.1,22,0.00,,---,0.00,VWS V14.01,2013-02-15 20:28:00,
2013-02-15 14:30:00,36.7,1.4,29.26,NNW,330,3.1,3.1,22,0.00,,---,0.00,VWS V14.01,2013-02-15 20:30:00,
2013-02-15 14:31:00,36.7,1.4,29.26,NNW,341,4.0,4.0,22,0.00,,---,0.00,VWS V14.01,2013-02-15 20:31:00,
2013-02-15 14:33:00,36.9,1.6,29.26,NNW,341,4.0,4.0,22,0.00,,---,0.00,VWS V14.01,2013-02-15 20:33:00,
2013-02-15 14:35:00,37.0,1.7,29.26,SW,233,3.6,4.0,22,0.00,,---,0.00,VWS V14.01,2013-02-15 20:35:00,
2013-02-15 14:36:00,37.0,1.7,29.26,SW,233,3.6,3.6,22,0.00,,---,0.00,VWS V14.01,2013-02-15 20:36:00,
2013-02-15 14:38:00,36.9,1.6,29.26,SW,233,3.6,3.6,22,0.00,,---,0.00,VWS V14.01,2013-02-15 20:38:00,
2013-02-15 14:40:00,37.0,1.7,29.26,SW,233,3.6,3.6,22,0.00,,---,0.00,VWS V14.01,2013-02-15 20:40:00,
2013-02-15 14:41:00,37.0,1.7,29.26,SW,233,3.6,3.6,22,0.00,,---,0.00,VWS V14.01,2013-02-15 20:41:00,
2013-02-15 14:43:00,37.0,1.7,29.26,SW,233,3.6,3.6,22,0.00,,---,0.00,VWS V14.01,2013-02-15 20:43:00,
2013-02-15 14:45:00,36.9,1.6,29.26,NE,51,3.6,3.6,22,0.00,,---,0.00,VWS V14.01,2013-02-15 20:45:00,
2013-02-15 14:46:00,36.9,1.6,29.26,NE,51,3.6,3.6,22,0.00,,---,0.00,VWS V14.01,2013-02-15 20:46:00,
2013-02-15 14:48:00,36.7,1.4,29.26,SW,230,5.4,5.4,22,0.00,,---,0.00,VWS V14.01,2013-02-15 20:48:00,
2013-02-15 14:50:00,36.7,1.4,29.26,SW,230,5.4,5.4,22,0.00,,---,0.00,VWS V14.01,2013-02-15 20:50:00,
2013-02-15 14:51:00,36.7,1.4,29.26,SW,230,5.4,5.4,22,0.00,,---,0.00,VWS V14.01,2013-02-15 20:51:00,
2013-02-15 14:53:00,36.7,1.4,29.26,SW,230,5.4,5.4,22,0.00,,---,0.00,VWS V14.01,2013-02-15 20:53:00,
2013-02-15 14:55:00,36.9,1.6,29.26,SSW,193,2.7,5.4,22,0.00,,---,0.00,VWS V14.01,2013-02-15 20:55:00,
2013-02-15 14:56:00,37.0,1.7,29.26,SSW,193,2.7,5.4,22,0.00,,---,0.00,VWS V14.01,2013-02-15 20:56:00,
2013-02-15 14:58:00,37.0,1.7,29.26,North,353,5.8,5.8,22,0.00,,---,0.00,VWS V14.01,2013-02-15 20:58:00,
2013-02-15 15:00:00,37.2,1.9,29.26,North,353,5.8,5.8,22,0.00,,---,0.00,VWS V14.01,2013-02-15 21:00:00,
2013-02-15 15:01:00,37.2,1.9,29.26,North,353,5.8,5.8,22,0.00,,---,0.00,VWS V14.01,2013-02-15 21:01:00,
2013-02-15 15:03:00,37.4,1.0,29.26,WSW,257,3.6,3.6,21,0.00,,---,0.00,VWS V14.01,2013-02-15 21:03:00,
2013-02-15 15:05:00,37.6,1.2,29.26,WSW,257,3.6,3.6,21,0.00,,---,0.00,VWS V14.01,2013-02-15 21:05:00,
2013-02-15 15:06:00,37.8,1.4,29.26,WSW,257,3.6,3.6,21,0.00,,---,0.00,VWS V14.01,2013-02-15 21:06:00,
2013-02-15 15:08:00,37.9,1.5,29.26,WSW,257,3.6,3.6,21,0.00,,---,0.00,VWS V14.01,2013-02-15 21:08:00,
2013-02-15 15:11:00,37.9,1.5,29.26,WNW,291,5.8,5.8,21,0.00,,---,0.00,VWS V14.01,2013-02-15 21:11:00,
2013-02-15 15:12:00,37.8,1.4,29.26,WNW,291,5.8,5.8,21,0.00,,---,0.00,VWS V14.01,2013-02-15 21:12:00,
2013-02-15 15:13:00,37.6,1.2,29.26,WNW,291,5.8,5.8,21,0.00,,---,0.00,VWS V14.01,2013-02-15 21:13:00,
2013-02-15 15:16:00,37.4,1.0,29.26,NNE,30,3.1,3.1,21,0.00,,---,0.00,VWS V14.01,2013-02-15 21:16:00,
2013-02-15 15:17:00,37.2,1.9,29.26,NNE,30,3.1,3.1,22,0.00,,---,0.00,VWS V14.01,2013-02-15 21:17:00,
2013-02-15 15:18:00,37.2,1.9,29.26,South,185,5.8,5.8,22,0.00,,---,0.00,VWS V14.01,2013-02-15 21:18:00,
2013-02-15 15:21:00,37.0,1.7,29.26,South,185,5.8,5.8,22,0.00,,---,0.00,VWS V14.01,2013-02-15 21:21:00,
2013-02-15 15:22:00,37.0,1.7,29.26,South,185,5.8,5.8,22,0.00,,---,0.00,VWS V14.01,2013-02-15 21:22:00,
2013-02-15 15:23:00,37.0,1.7,29.26,NW,321,3.6,5.8,22,0.00,,---,0.00,VWS V14.01,2013-02-15 21:23:00,
2013-02-15 15:26:00,36.9,1.6,29.26,NW,321,3.6,3.6,22,0.00,,---,0.00,VWS V14.01,2013-02-15 21:26:00,
2013-02-15 15:27:00,36.9,1.6,29.26,NW,321,3.6,3.6,22,0.00,,---,0.00,VWS V14.01,2013-02-15 21:27:00,
2013-02-15 15:29:00,36.9,1.6,29.26,North,357,2.7,2.7,22,0.00,,---,0.00,VWS V14.01,2013-02-15 21:29:00,
2013-02-15 15:31:00,36.9,1.6,29.26,SSW,205,3.6,3.6,22,0.00,,---,0.00,VWS V14.01,2013-02-15 21:31:00,
2013-02-15 15:32:00,36.9,1.6,29.26,SSW,205,3.6,3.6,22,0.00,,---,0.00,VWS V14.01,2013-02-15 21:32:00,
2013-02-15 15:34:00,36.9,1.6,29.26,SSW,205,3.6,3.6,22,0.00,,---,0.00,VWS V14.01,2013-02-15 21:34:00,
2013-02-15 15:36:00,36.9,1.6,29.26,SSW,205,3.6,3.6,22,0.00,,---,0.00,VWS V14.01,2013-02-15 21:36:00,
2013-02-15 15:37:00,36.9,1.6,29.26,SSW,205,3.6,3.6,22,0.00,,---,0.00,VWS V14.01,2013-02-15 21:37:00,
2013-02-15 15:39:00,36.7,1.4,29.26,NNE,24,2.7,2.7,22,0.00,,---,0.00,VWS V14.01,2013-02-15 21:39:00,
2013-02-15 15:41:00,36.7,1.4,29.26,NNE,24,2.7,2.7,22,0.00,,---,0.00,VWS V14.01,2013-02-15 21:41:00,
2013-02-15 15:42:00,36.9,1.6,29.26,South,186,3.6,3.6,22,0.00,,---,0.00,VWS V14.01,2013-02-15 21:42:00,
2013-02-15 15:44:00,36.9,1.6,29.26,South,186,3.6,3.6,22,0.00,,---,0.00,VWS V14.01,2013-02-15 21:44:00,
2013-02-15 15:46:00,36.9,1.6,29.26,South,186,3.6,3.6,22,0.00,,---,0.00,VWS V14.01,2013-02-15 21:46:00,
2013-02-15 15:47:00,36.9,1.6,29.26,South,186,3.6,3.6,22,0.00,,---,0.00,VWS V14.01,2013-02-15 21:47:00,
2013-02-15 15:49:00,37.0,1.7,29.26,South,186,3.6,3.6,22,0.00,,---,0.00,VWS V14.01,2013-02-15 21:49:00,
2013-02-15 15:51:00,37.0,1.7,29.26,NNW,329,3.6,3.6,22,0.00,,---,0.00,VWS V14.01,2013-02-15 21:51:00,
2013-02-15 15:52:00,37.2,1.9,29.26,NNW,329,3.6,3.6,22,0.00,,---,0.00,VWS V14.01,2013-02-15 21:52:00,
2013-02-15 15:54:00,37.0,1.7,29.26,NNW,329,3.6,3.6,22,0.00,,---,0.00,VWS V14.01,2013-02-15 21:54:00,
2013-02-15 15:56:00,37.0,1.7,29.26,NE,36,2.7,2.7,22,0.00,,---,0.00,VWS V14.01,2013-02-15 21:56:00,
2013-02-15 15:57:00,37.0,1.7,29.26,NE,36,2.7,2.7,22,0.00,,---,0.00,VWS V14.01,2013-02-15 21:57:00,
2013-02-15 16:00:00,37.0,1.7,29.26,NE,36,2.7,2.7,22,0.00,,---,0.00,VWS V14.01,2013-02-15 22:00:00,
2013-02-15 16:01:00,37.0,1.7,29.26,NW,314,6.3,6.3,22,0.00,,---,0.00,VWS V14.01,2013-02-15 22:01:00,
2013-02-15 16:02:00,37.0,1.7,29.26,NW,314,6.3,6.3,22,0.00,,---,0.00,VWS V14.01,2013-02-15 22:02:00,
2013-02-15 16:05:00,37.0,1.7,29.26,North,357,5.4,5.4,22,0.00,,---,0.00,VWS V14.01,2013-02-15 22:05:00,
2013-02-15 16:06:00,37.0,1.7,29.26,North,357,5.4,5.4,22,0.00,,---,0.00,VWS V14.01,2013-02-15 22:06:00,
2013-02-15 16:07:00,37.0,1.7,29.26,North,357,5.4,5.4,22,0.00,,---,0.00,VWS V14.01,2013-02-15 22:07:00,
2013-02-15 16:10:00,37.0,1.7,29.26,NNE,18,5.8,5.8,22,0.00,,---,0.00,VWS V14.01,2013-02-15 22:10:00,
2013-02-15 16:11:00,37.0,1.7,29.26,NNE,18,5.8,5.8,22,0.00,,---,0.00,VWS V14.01,2013-02-15 22:11:00,
2013-02-15 16:12:00,37.0,1.7,29.26,NNE,18,5.8,5.8,22,0.00,,---,0.00,VWS V14.01,2013-02-15 22:12:00,
2013-02-15 16:13:00,37.0,1.7,29.26,NNE,18,5.8,5.8,22,0.00,,---,0.00,VWS V14.01,2013-02-15 22:13:00,
2013-02-15 16:15:00,37.0,1.7,29.26,NNE,18,5.8,5.8,22,0.00,,---,0.00,VWS V14.01,2013-02-15 22:15:00,
2013-02-15 16:16:00,37.0,1.7,29.26,NNE,18,5.8,5.8,22,0.00,,---,0.00,VWS V14.01,2013-02-15 22:16:00,
2013-02-15 16:17:00,37.0,1.7,29.26,NNW,334,2.2,2.2,22,0.00,,---,0.00,VWS V14.01,2013-02-15 22:17:00,
2013-02-15 16:18:00,37.0,1.7,29.26,NNW,334,2.2,2.2,22,0.00,,---,0.00,VWS V14.01,2013-02-15 22:18:00,
2013-02-15 16:20:00,37.0,1.7,29.26,NNW,334,2.2,2.2,22,0.00,,---,0.00,VWS V14.01,2013-02-15 22:20:00,
2013-02-15 16:22:00,36.9,1.6,29.26,NNW,330,5.4,5.4,22,0.00,,---,0.00,VWS V14.01,2013-02-15 22:22:00,
2013-02-15 16:23:00,36.9,1.6,29.26,NNW,330,5.4,5.4,22,0.00,,---,0.00,VWS V14.01,2013-02-15 22:23:00,
2013-02-15 16:25:00,36.9,1.6,29.26,NW,304,3.6,3.6,22,0.00,,---,0.00,VWS V14.01,2013-02-15 22:25:00,
2013-02-15 16:27:00,36.9,1.6,29.26,NW,304,3.6,3.6,22,0.00,,---,0.00,VWS V14.01,2013-02-15 22:27:00,
2013-02-15 16:28:00,36.9,1.6,29.26,NW,304,3.6,3.6,22,0.00,,---,0.00,VWS V14.01,2013-02-15 22:28:00,
2013-02-15 16:30:00,36.9,1.6,29.26,NW,318,4.9,4.9,22,0.00,,---,0.00,VWS V14.01,2013-02-15 22:30:00,
2013-02-15 16:32:00,36.9,1.6,29.26,NW,318,4.9,4.9,22,0.00,,---,0.00,VWS V14.01,2013-02-15 22:32:00,
2013-02-15 16:33:00,36.9,1.6,29.26,NW,318,4.9,4.9,22,0.00,,---,0.00,VWS V14.01,2013-02-15 22:33:00,
2013-02-15 16:35:00,36.9,1.6,29.26,North,6,5.4,5.4,22,0.00,,---,0.00,VWS V14.01,2013-02-15 22:35:00,
2013-02-15 16:37:00,36.7,1.4,29.26,NW,318,5.8,5.8,22,0.00,,---,0.00,VWS V14.01,2013-02-15 22:37:00,
2013-02-15 16:38:00,36.7,1.4,29.26,NW,318,5.8,5.8,22,0.00,,---,0.00,VWS V14.01,2013-02-15 22:38:00,
2013-02-15 16:40:00,36.7,1.4,29.26,NNE,24,4.0,4.0,22,0.00,,---,0.00,VWS V14.01,2013-02-15 22:40:00,
2013-02-15 16:42:00,36.7,1.4,29.26,NNE,24,4.0,4.0,22,0.00,,---,0.00,VWS V14.01,2013-02-15 22:42:00,
2013-02-15 16:43:00,36.5,1.3,29.26,NNE,24,4.0,4.0,22,0.00,,---,0.00,VWS V14.01,2013-02-15 22:43:00,
2013-02-15 16:45:00,36.5,1.3,29.26,NW,304,4.9,4.9,22,0.00,,---,0.00,VWS V14.01,2013-02-15 22:45:00,
2013-02-15 16:47:00,36.5,1.3,29.26,NW,304,4.9,4.9,22,0.00,,---,0.00,VWS V14.01,2013-02-15 22:47:00,
2013-02-15 16:48:00,36.5,1.3,29.26,NNE,12,2.2,4.9,22,0.00,,---,0.00,VWS V14.01,2013-02-15 22:48:00,
2013-02-15 16:51:00,36.3,1.1,29.26,NNE,12,2.2,2.2,22,0.00,,---,0.00,VWS V14.01,2013-02-15 22:51:00,
2013-02-15 16:53:00,36.3,1.1,29.26,NNE,12,2.2,2.2,22,0.00,,---,0.00,VWS V14.01,2013-02-15 22:53:00,
2013-02-15 16:56:00,36.1,1.0,29.26,NNE,12,2.2,2.2,22,0.00,,---,0.00,VWS V14.01,2013-02-15 22:56:00,
2013-02-15 16:58:00,36.1,1.0,29.26,NNW,336,3.1,3.1,22,0.00,,---,0.00,VWS V14.01,2013-02-15 22:58:00,
2013-02-15 17:01:00,36.0,0.8,29.26,North,353,2.7,2.7,22,0.00,,---,0.00,VWS V14.01,2013-02-15 23:01:00,
2013-02-15 17:03:00,36.0,0.8,29.26,NNE,19,3.6,3.6,22,0.00,,---,0.00,VWS V14.01,2013-02-15 23:03:00,
2013-02-15 17:04:00,35.8,0.7,29.26,NNE,19,3.6,3.6,22,0.00,,---,0.00,VWS V14.01,2013-02-15 23:04:00,
2013-02-15 17:06:00,35.8,0.7,29.26,NW,310,5.4,5.4,22,0.00,,---,0.00,VWS V14.01,2013-02-15 23:06:00,
2013-02-15 17:08:00,35.8,0.7,29.26,NNW,328,3.6,3.6,22,0.00,,---,0.00,VWS V14.01,2013-02-15 23:08:00,
2013-02-15 17:09:00,35.6,0.5,29.26,NNW,328,3.6,3.6,22,0.00,,---,0.00,VWS V14.01,2013-02-15 23:09:00,
2013-02-15 17:11:00,35.6,0.5,29.26,North,357,3.1,3.1,22,0.00,,---,0.00,VWS V14.01,2013-02-15 23:11:00,
2013-02-15 17:13:00,35.4,0.4,29.26,North,353,3.6,3.6,22,0.00,,---,0.00,VWS V14.01,2013-02-15 23:13:00,
2013-02-15 17:14:00,35.4,0.4,29.26,North,353,3.6,3.6,22,0.00,,---,0.00,VWS V14.01,2013-02-15 23:14:00,
2013-02-15 17:15:00,35.4,0.4,29.26,NNW,330,5.4,5.4,22,0.00,,---,0.00,VWS V14.01,2013-02-15 23:15:00,
2013-02-15 17:16:00,35.4,0.4,29.26,NNW,330,5.4,5.4,22,0.00,,---,0.00,VWS V14.01,2013-02-15 23:16:00,
2013-02-15 17:18:00,35.4,0.4,29.26,WNW,295,3.6,3.6,22,0.00,,---,0.00,VWS V14.01,2013-02-15 23:18:00,
2013-02-15 17:19:00,35.2,0.2,29.26,WNW,295,3.6,3.6,22,0.00,,---,0.00,VWS V14.01,2013-02-15 23:19:00,
2013-02-15 17:20:00,35.2,0.2,29.26,WNW,295,3.6,3.6,22,0.00,,---,0.00,VWS V14.01,2013-02-15 23:20:00,
2013-02-15 17:21:00,35.2,0.2,29.26,WNW,295,3.6,3.6,22,0.00,,---,0.00,VWS V14.01,2013-02-15 23:21:00,
2013-02-15 17:23:00,35.2,0.2,29.26,NNW,343,0.0,3.6,22,0.00,,---,0.00,VWS V14.01,2013-02-15 23:23:00,
2013-02-15 17:24:00,35.2,0.2,29.26,NNW,343,0.0,3.6,22,0.00,,---,0.00,VWS V14.01,2013-02-15 23:24:00,
2013-02-15 17:25:00,35.1,0.1,29.26,NNW,343,0.0,0.0,22,0.00,,---,0.00,VWS V14.01,2013-02-15 23:25:00,
2013-02-15 17:26:00,35.1,0.1,29.26,North,11,0.0,0.0,22,0.00,,---,0.00,VWS V14.01,2013-02-15 23:26:00,
2013-02-15 17:28:00,35.1,0.1,29.26,North,353,2.2,2.2,22,0.00,,---,0.00,VWS V14.01,2013-02-15 23:28:00,
2013-02-15 17:29:00,35.1,0.1,29.26,North,0,0.0,0.0,22,0.00,,---,0.00,VWS V14.01,2013-02-15 23:29:00,
2013-02-15 17:30:00,35.1,0.1,29.26,North,0,0.0,0.0,22,0.00,,---,0.00,VWS V14.01,2013-02-15 23:30:00,
2013-02-15 17:31:00,35.1,0.1,29.26,North,0,0.0,0.0,22,0.00,,---,0.00,VWS V14.01,2013-02-15 23:31:00,
2013-02-15 17:34:00,34.9,-0.1,29.26,NNW,348,3.1,3.1,22,0.00,,---,0.00,VWS V14.01,2013-02-15 23:34:00,
2013-02-15 17:35:00,34.9,-0.1,29.26,NNW,348,3.1,3.1,22,0.00,,---,0.00,VWS V14.01,2013-02-15 23:35:00,
2013-02-15 17:36:00,34.9,-0.1,29.26,NNW,348,3.1,3.1,22,0.00,,---,0.00,VWS V14.01,2013-02-15 23:36:00,
2013-02-15 17:39:00,34.9,-0.1,29.26,NNW,348,3.1,3.1,22,0.00,,---,0.00,VWS V14.01,2013-02-15 23:39:00,
2013-02-15 17:40:00,34.7,-0.2,29.26,NNW,348,3.1,3.1,22,0.00,,---,0.00,VWS V14.01,2013-02-15 23:40:00,
2013-02-15 17:41:00,34.7,-0.2,29.26,NNW,338,2.7,2.7,22,0.00,,---,0.00,VWS V14.01,2013-02-15 23:41:00,
2013-02-15 17:44:00,34.5,-0.4,29.23,North,349,2.2,2.2,22,0.00,,---,0.00,VWS V14.01,2013-02-15 23:44:00,
2013-02-15 17:45:00,34.5,-0.4,29.23,NNW,338,0.0,2.2,22,0.00,,---,0.00,VWS V14.01,2013-02-15 23:45:00,
2013-02-15 17:46:00,34.5,-0.4,29.23,NW,324,3.1,3.1,22,0.00,,---,0.00,VWS V14.01,2013-02-15 23:46:00,
2013-02-15 17:49:00,34.5,-0.4,29.23,NW,324,3.1,3.1,22,0.00,,---,0.00,VWS V14.01,2013-02-15 23:49:00,
2013-02-15 17:50:00,34.3,-0.6,29.23,NW,324,3.1,3.1,22,0.00,,---,0.00,VWS V14.01,2013-02-15 23:50:00,
2013-02-15 17:51:00,34.3,-0.6,29.23,NNE,24,4.0,4.0,22,0.00,,---,0.00,VWS V14.01,2013-02-15 23:51:00,
2013-02-15 17:54:00,34.3,-0.6,29.23,NNW,346,2.7,2.7,22,0.00,,---,0.00,VWS V14.01,2013-02-15 23:54:00,
2013-02-15 17:55:00,34.2,-0.7,29.23,NW,319,3.6,3.6,22,0.00,,---,0.00,VWS V14.01,2013-02-15 23:55:00,
2013-02-15 17:56:00,34.2,-0.7,29.23,NW,319,3.6,3.6,22,0.00,,---,0.00,VWS V14.01,2013-02-15 23:56:00,
2013-02-15 17:59:00,34.0,-0.9,29.23,North,357,0.0,3.6,22,0.00,,---,0.00,VWS V14.01,2013-02-15 23:59:00,
2013-02-15 18:00:00,34.0,-0.9,29.23,North,357,0.0,0.0,22,0.00,,---,0.00,VWS V14.01,2013-02-16 00:00:00,
2013-02-15 18:01:00,34.0,-0.9,29.23,North,357,0.0,0.0,22,0.00,,---,0.00,VWS V14.01,2013-02-16 00:01:00,
2013-02-15 18:04:00,33.8,-1.0,29.23,North,0,2.2,2.2,22,0.00,,---,0.00,VWS V14.01,2013-02-16 00:04:00,
2013-02-15 18:05:00,33.8,-1.0,29.23,NNW,327,0.0,2.2,22,0.00,,---,0.00,VWS V14.01,2013-02-16 00:05:00,
2013-02-15 18:06:00,33.8,-1.0,29.23,NNW,327,0.0,0.0,22,0.00,,---,0.00,VWS V14.01,2013-02-16 00:06:00,
2013-02-15 18:09:00,33.8,-1.0,29.23,North,6,0.0,0.0,22,0.00,,---,0.00,VWS V14.01,2013-02-16 00:09:00,
2013-02-15 18:10:00,33.8,-1.0,29.23,North,6,0.0,0.0,22,0.00,,---,0.00,VWS V14.01,2013-02-16 00:10:00,
2013-02-15 18:11:00,33.6,-0.2,29.23,North,6,0.0,0.0,23,0.00,,---,0.00,VWS V14.01,2013-02-16 00:11:00,
2013-02-15 18:12:00,33.6,-0.2,29.23,North,6,0.0,0.0,23,0.00,,---,0.00,VWS V14.01,2013-02-16 00:12:00,
2013-02-15 18:14:00,33.6,-0.2,29.23,NNW,330,2.2,2.2,23,0.00,,---,0.00,VWS V14.01,2013-02-16 00:14:00,
2013-02-15 18:15:00,33.6,-0.2,29.23,NNW,330,2.2,2.2,23,0.00,,---,0.00,VWS V14.01,2013-02-16 00:15:00,
2013-02-15 18:16:00,33.6,-0.2,29.23,North,357,2.2,2.2,23,0.00,,---,0.00,VWS V14.01,2013-02-16 00:16:00,
2013-02-15 18:17:00,33.4,-0.4,29.23,North,357,0.0,2.2,23,0.00,,---,0.00,VWS V14.01,2013-02-16 00:17:00,
2013-02-15 18:19:00,33.4,-0.4,29.23,North,0,0.0,0.0,23,0.00,,---,0.00,VWS V14.01,2013-02-16 00:19:00,
2013-02-15 18:20:00,33.4,-0.4,29.23,North,0,0.0,0.0,23,0.00,,---,0.00,VWS V14.01,2013-02-16 00:20:00,
2013-02-15 18:21:00,33.4,-0.4,29.23,North,0,0.0,0.0,23,0.00,,---,0.00,VWS V14.01,2013-02-16 00:21:00,
2013-02-15 18:22:00,33.4,-0.4,29.23,North,0,0.0,0.0,23,0.00,,---,0.00,VWS V14.01,2013-02-16 00:22:00,
2013-02-15 18:24:00,33.3,-0.5,29.23,North,0,0.0,0.0,23,0.00,,---,0.00,VWS V14.01,2013-02-16 00:24:00,
2013-02-15 18:25:00,33.3,-0.5,29.23,North,0,0.0,0.0,23,0.00,,---,0.00,VWS V14.01,2013-02-16 00:25:00,
2013-02-15 18:26:00,33.3,-0.5,29.23,North,0,0.0,0.0,23,0.00,,---,0.00,VWS V14.01,2013-02-16 00:26:00,
2013-02-15 18:27:00,33.1,-0.7,29.23,North,0,0.0,0.0,23,0.00,,---,0.00,VWS V14.01,2013-02-16 00:27:00,
2013-02-15 18:29:00,33.1,-0.7,29.23,North,0,0.0,0.0,23,0.00,,---,0.00,VWS V14.01,2013-02-16 00:29:00,
2013-02-15 18:30:00,33.1,-0.7,29.23,North,0,0.0,0.0,23,0.00,,---,0.00,VWS V14.01,2013-02-16 00:30:00,
2013-02-15 18:31:00,33.1,-0.7,29.23,North,0,0.0,0.0,23,0.00,,---,0.00,VWS V14.01,2013-02-16 00:31:00,
2013-02-15 18:32:00,32.9,-0.8,29.23,North,0,0.0,0.0,23,0.00,,---,0.00,VWS V14.01,2013-02-16 00:32:00,
2013-02-15 18:34:00,32.9,-0.8,29.23,North,353,0.0,0.0,23,0.00,,---,0.00,VWS V14.01,2013-02-16 00:34:00,
2013-02-15 18:35:00,32.7,-1.0,29.23,North,353,0.0,0.0,23,0.00,,---,0.00,VWS V14.01,2013-02-16 00:35:00,
2013-02-15 18:36:00,32.7,-1.0,29.23,North,353,0.0,0.0,23,0.00,,---,0.00,VWS V14.01,2013-02-16 00:36:00,
2013-02-15 18:37:00,32.7,-1.0,29.23,North,353,0.0,0.0,23,0.00,,---,0.00,VWS V14.01,2013-02-16 00:37:00,
2013-02-15 18:39:00,32.7,-1.0,29.23,North,353,0.0,0.0,23,0.00,,---,0.00,VWS V14.01,2013-02-16 00:39:00,
2013-02-15 18:41:00,32.7,-1.0,29.23,North,353,0.0,0.0,23,0.00,,---,0.00,VWS V14.01,2013-02-16 00:41:00,
2013-02-15 18:42:00,32.5,-1.1,29.23,North,353,0.0,0.0,23,0.00,,---,0.00,VWS V14.01,2013-02-16 00:42:00,
2013-02-15 18:45:00,32.5,-1.1,29.23,North,0,0.0,0.0,23,0.00,,---,0.00,VWS V14.01,2013-02-16 00:45:00,
2013-02-15 18:46:00,32.5,-1.1,29.23,North,0,0.0,0.0,23,0.00,,---,0.00,VWS V14.01,2013-02-16 00:46:00,
2013-02-15 18:48:00,32.5,-1.1,29.23,North,0,0.0,0.0,23,0.00,,---,0.00,VWS V14.01,2013-02-16 00:48:00,
2013-02-15 18:50:00,32.5,-1.1,29.23,North,0,0.0,0.0,23,0.00,,---,0.00,VWS V14.01,2013-02-16 00:50:00,
2013-02-15 18:51:00,32.5,-1.1,29.26,North,0,0.0,0.0,23,0.00,,---,0.00,VWS V14.01,2013-02-16 00:51:00,
2013-02-15 18:53:00,32.4,-1.3,29.26,North,0,0.0,0.0,23,0.00,,---,0.00,VWS V14.01,2013-02-16 00:53:00,
2013-02-15 18:55:00,32.4,-1.3,29.26,North,0,0.0,0.0,23,0.00,,---,0.00,VWS V14.01,2013-02-16 00:55:00,
2013-02-15 18:56:00,32.4,-1.3,29.26,North,0,0.0,0.0,23,0.00,,---,0.00,VWS V14.01,2013-02-16 00:56:00,
2013-02-15 18:58:00,32.2,-1.4,29.26,North,0,0.0,0.0,23,0.00,,---,0.00,VWS V14.01,2013-02-16 00:58:00,
2013-02-15 19:00:00,32.2,-1.4,29.26,North,0,0.0,0.0,23,0.00,,---,0.00,VWS V14.01,2013-02-16 01:00:00,
2013-02-15 19:01:00,32.2,-1.4,29.26,North,357,0.0,0.0,23,0.00,,---,0.00,VWS V14.01,2013-02-16 01:01:00,
2013-02-15 19:03:00,32.2,-1.4,29.26,North,357,0.0,0.0,23,0.00,,---,0.00,VWS V14.01,2013-02-16 01:03:00,
2013-02-15 19:05:00,32.2,-1.4,29.26,North,357,0.0,0.0,23,0.00,,---,0.00,VWS V14.01,2013-02-16 01:05:00,
2013-02-15 19:06:00,32.0,-1.6,29.26,North,357,0.0,0.0,23,0.00,,---,0.00,VWS V14.01,2013-02-16 01:06:00,
2013-02-15 19:07:00,32.0,-1.6,29.26,North,357,0.0,0.0,23,0.00,,---,0.00,VWS V14.01,2013-02-16 01:07:00,
2013-02-15 19:08:00,32.0,-1.6,29.26,North,0,0.0,0.0,23,0.00,,---,0.00,VWS V14.01,2013-02-16 01:08:00,
2013-02-15 19:10:00,32.0,-1.6,29.26,North,0,0.0,0.0,23,0.00,,---,0.00,VWS V14.01,2013-02-16 01:10:00,
2013-02-15 19:11:00,32.0,-1.6,29.26,North,0,0.0,0.0,23,0.00,,---,0.00,VWS V14.01,2013-02-16 01:11:00,
2013-02-15 19:12:00,31.8,-1.8,29.26,North,0,0.0,0.0,23,0.00,,---,0.00,VWS V14.01,2013-02-16 01:12:00,
2013-02-15 19:13:00,31.8,-1.8,29.26,North,0,0.0,0.0,23,0.00,,---,0.00,VWS V14.01,2013-02-16 01:13:00,
2013-02-15 19:15:00,31.8,-1.8,29.26,North,0,0.0,0.0,23,0.00,,---,0.00,VWS V14.01,2013-02-16 01:15:00,
2013-02-15 19:16:00,31.8,-1.8,29.26,North,0,0.0,0.0,23,0.00,,---,0.00,VWS V14.01,2013-02-16 01:16:00,
2013-02-15 19:17:00,31.8,-1.8,29.23,North,0,0.0,0.0,23,0.00,,---,0.00,VWS V14.01,2013-02-16 01:17:00,
2013-02-15 19:18:00,31.8,-1.8,29.23,North,0,0.0,0.0,23,0.00,,---,0.00,VWS V14.01,2013-02-16 01:18:00,
2013-02-15 19:20:00,31.6,-1.9,29.23,North,357,0.0,0.0,23,0.00,,---,0.00,VWS V14.01,2013-02-16 01:20:00,
2013-02-15 19:21:00,31.6,-1.9,29.23,North,357,0.0,0.0,23,0.00,,---,0.00,VWS V14.01,2013-02-16 01:21:00,
2013-02-15 19:22:00,31.6,-1.9,29.23,North,357,0.0,0.0,23,0.00,,---,0.00,VWS V14.01,2013-02-16 01:22:00,
2013-02-15 19:23:00,31.5,-2.0,29.23,North,357,0.0,0.0,23,0.00,,---,0.00,VWS V14.01,2013-02-16 01:23:00,
2013-02-15 19:25:00,31.5,-2.0,29.23,North,357,0.0,0.0,23,0.00,,---,0.00,VWS V14.01,2013-02-16 01:25:00,
2013-02-15 19:26:00,31.5,-2.0,29.23,North,357,0.0,0.0,23,0.00,,---,0.00,VWS V14.01,2013-02-16 01:26:00,
2013-02-15 19:27:00,31.5,-2.0,29.23,North,357,0.0,0.0,23,0.00,,---,0.00,VWS V14.01,2013-02-16 01:27:00,
2013-02-15 19:28:00,31.5,-2.0,29.23,North,357,0.0,0.0,23,0.00,,---,0.00,VWS V14.01,2013-02-16 01:28:00,
2013-02-15 19:30:00,31.3,-2.2,29.26,North,357,0.0,0.0,23,0.00,,---,0.00,VWS V14.01,2013-02-16 01:30:00,
2013-02-15 19:31:00,31.3,-2.2,29.26,North,357,0.0,0.0,23,0.00,,---,0.00,VWS V14.01,2013-02-16 01:31:00,
2013-02-15 19:32:00,31.3,-2.2,29.26,North,357,0.0,0.0,23,0.00,,---,0.00,VWS V14.01,2013-02-16 01:32:00,
2013-02-15 19:33:00,31.3,-2.2,29.26,North,357,0.0,0.0,23,0.00,,---,0.00,VWS V14.01,2013-02-16 01:33:00,
2013-02-15 19:35:00,31.3,-2.2,29.26,North,357,0.0,0.0,23,0.00,,---,0.00,VWS V14.01,2013-02-16 01:35:00,
2013-02-15 19:36:00,31.3,-2.2,29.26,North,357,0.0,0.0,23,0.00,,---,0.00,VWS V14.01,2013-02-16 01:36:00,
2013-02-15 19:37:00,31.3,-2.2,29.26,North,357,0.0,0.0,23,0.00,,---,0.00,VWS V14.01,2013-02-16 01:37:00,
2013-02-15 19:39:00,31.1,-2.4,29.26,North,357,0.0,0.0,23,0.00,,---,0.00,VWS V14.01,2013-02-16 01:39:00,
2013-02-15 19:40:00,31.1,-2.4,29.26,North,357,0.0,0.0,23,0.00,,---,0.00,VWS V14.01,2013-02-16 01:40:00,
2013-02-15 19:41:00,31.1,-2.4,29.26,North,357,0.0,0.0,23,0.00,,---,0.00,VWS V14.01,2013-02-16 01:41:00,
2013-02-15 19:42:00,31.1,-2.4,29.26,North,357,0.0,0.0,23,0.00,,---,0.00,VWS V14.01,2013-02-16 01:42:00,
2013-02-15 19:44:00,31.1,-2.4,29.23,North,357,0.0,0.0,23,0.00,,---,0.00,VWS V14.01,2013-02-16 01:44:00,
2013-02-15 19:45:00,31.1,-2.4,29.23,North,357,0.0,0.0,23,0.00,,---,0.00,VWS V14.01,2013-02-16 01:45:00,
2013-02-15 19:46:00,31.1,-2.4,29.23,North,357,0.0,0.0,23,0.00,,---,0.00,VWS V14.01,2013-02-16 01:46:00,
2013-02-15 19:47:00,31.1,-2.4,29.23,North,357,0.0,0.0,23,0.00,,---,0.00,VWS V14.01,2013-02-16 01:47:00,
2013-02-15 19:49:00,30.9,-2.5,29.23,North,357,0.0,0.0,23,0.00,,---,0.00,VWS V14.01,2013-02-16 01:49:00,
2013-02-15 19:50:00,30.9,-2.5,29.23,North,357,0.0,0.0,23,0.00,,---,0.00,VWS V14.01,2013-02-16 01:50:00,
2013-02-15 19:51:00,30.9,-2.5,29.23,North,357,0.0,0.0,23,0.00,,---,0.00,VWS V14.01,2013-02-16 01:51:00,
2013-02-15 19:52:00,30.9,-2.5,29.23,North,357,0.0,0.0,23,0.00,,---,0.00,VWS V14.01,2013-02-16 01:52:00,
2013-02-15 19:54:00,30.7,-2.7,29.23,North,357,0.0,0.0,23,0.00,,---,0.00,VWS V14.01,2013-02-16 01:54:00,
2013-02-15 19:56:00,30.7,-2.7,29.23,North,357,0.0,0.0,23,0.00,,---,0.00,VWS V14.01,2013-02-16 01:56:00,
2013-02-15 19:57:00,30.7,-2.7,29.23,North,357,0.0,0.0,23,0.00,,---,0.00,VWS V14.01,2013-02-16 01:57:00,
2013-02-15 19:59:00,30.7,-2.7,29.23,North,357,0.0,0.0,23,0.00,,---,0.00,VWS V14.01,2013-02-16 01:59:00,
2013-02-15 20:01:00,30.6,-2.8,29.23,North,357,0.0,0.0,23,0.00,,---,0.00,VWS V14.01,2013-02-16 02:01:00,
2013-02-15 20:02:00,30.6,-2.8,29.23,North,357,0.0,0.0,23,0.00,,---,0.00,VWS V14.01,2013-02-16 02:02:00,
2013-02-15 20:04:00,30.4,-3.0,29.23,North,357,0.0,0.0,23,0.00,,---,0.00,VWS V14.01,2013-02-16 02:04:00,
2013-02-15 20:06:00,30.4,-3.0,29.23,North,357,0.0,0.0,23,0.00,,---,0.00,VWS V14.01,2013-02-16 02:06:00,
2013-02-15 20:08:00,30.4,-3.0,29.23,North,357,0.0,0.0,23,0.00,,---,0.00,VWS V14.01,2013-02-16 02:08:00,
2013-02-15 20:09:00,30.2,-3.1,29.23,North,357,0.0,0.0,23,0.00,,---,0.00,VWS V14.01,2013-02-16 02:09:00,
2013-02-15 20:11:00,30.2,-3.1,29.23,North,357,0.0,0.0,23,0.00,,---,0.00,VWS V14.01,2013-02-16 02:11:00,
2013-02-15 20:13:00,30.2,-3.1,29.23,North,357,0.0,0.0,23,0.00,,---,0.00,VWS V14.01,2013-02-16 02:13:00,
2013-02-15 20:15:00,30.2,-3.1,29.23,North,357,0.0,0.0,23,0.00,,---,0.00,VWS V14.01,2013-02-16 02:15:00,
2013-02-15 20:16:00,30.2,-3.1,29.23,North,357,0.0,0.0,23,0.00,,---,0.00,VWS V14.01,2013-02-16 02:16:00,
2013-02-15 20:17:00,30.2,-3.1,29.23,North,357,0.0,0.0,23,0.00,,---,0.00,VWS V14.01,2013-02-16 02:17:00,
2013-02-15 20:18:00,30.0,-3.3,29.23,North,357,0.0,0.0,23,0.00,,---,0.00,VWS V14.01,2013-02-16 02:18:00,
2013-02-15 20:20:00,30.0,-3.3,29.23,North,357,0.0,0.0,23,0.00,,---,0.00,VWS V14.01,2013-02-16 02:20:00,
2013-02-15 20:21:00,30.0,-3.3,29.23,North,357,0.0,0.0,23,0.00,,---,0.00,VWS V14.01,2013-02-16 02:21:00,
2013-02-15 20:22:00,30.0,-3.3,29.23,North,357,0.0,0.0,23,0.00,,---,0.00,VWS V14.01,2013-02-16 02:22:00,
2013-02-15 20:23:00,30.0,-3.3,29.23,North,357,0.0,0.0,23,0.00,,---,0.00,VWS V14.01,2013-02-16 02:23:00,
2013-02-15 20:25:00,30.0,-3.3,29.23,North,357,0.0,0.0,23,0.00,,---,0.00,VWS V14.01,2013-02-16 02:25:00,
2013-02-15 20:26:00,30.0,-3.3,29.23,North,357,0.0,0.0,23,0.00,,---,0.00,VWS V14.01,2013-02-16 02:26:00,
2013-02-15 20:27:00,30.0,-3.3,29.23,North,357,0.0,0.0,23,0.00,,---,0.00,VWS V14.01,2013-02-16 02:27:00,
2013-02-15 20:28:00,30.0,-3.3,29.23,North,357,0.0,0.0,23,0.00,,---,0.00,VWS V14.01,2013-02-16 02:28:00,
2013-02-15 20:30:00,30.0,-3.3,29.23,North,357,0.0,0.0,23,0.00,,---,0.00,VWS V14.01,2013-02-16 02:30:00,
2013-02-15 20:31:00,30.0,-3.3,29.23,North,357,0.0,0.0,23,0.00,,---,0.00,VWS V14.01,2013-02-16 02:31:00,
2013-02-15 20:32:00,30.0,-3.3,29.23,North,357,0.0,0.0,23,0.00,,---,0.00,VWS V14.01,2013-02-16 02:32:00,
2013-02-15 20:33:00,30.0,-3.3,29.23,North,357,0.0,0.0,23,0.00,,---,0.00,VWS V14.01,2013-02-16 02:33:00,
2013-02-15 20:35:00,30.0,-3.3,29.23,North,357,0.0,0.0,23,0.00,,---,0.00,VWS V14.01,2013-02-16 02:35:00,
2013-02-15 20:36:00,30.0,-3.3,29.23,North,357,0.0,0.0,23,0.00,,---,0.00,VWS V14.01,2013-02-16 02:36:00,
2013-02-15 20:37:00,30.2,-3.1,29.23,North,357,0.0,0.0,23,0.00,,---,0.00,VWS V14.01,2013-02-16 02:37:00,
2013-02-15 20:38:00,30.2,-3.1,29.23,North,357,0.0,0.0,23,0.00,,---,0.00,VWS V14.01,2013-02-16 02:38:00,
2013-02-15 20:40:00,30.2,-3.1,29.23,North,357,0.0,0.0,23,0.00,,---,0.00,VWS V14.01,2013-02-16 02:40:00,
2013-02-15 20:41:00,30.2,-3.1,29.23,North,357,0.0,0.0,23,0.00,,---,0.00,VWS V14.01,2013-02-16 02:41:00,
2013-02-15 20:42:00,30.2,-3.1,29.23,North,357,0.0,0.0,23,0.00,,---,0.00,VWS V14.01,2013-02-16 02:42:00,
2013-02-15 20:43:00,30.2,-3.1,29.23,North,357,0.0,0.0,23,0.00,,---,0.00,VWS V14.01,2013-02-16 02:43:00,
2013-02-15 20:45:00,30.4,-3.0,29.23,North,357,0.0,0.0,23,0.00,,---,0.00,VWS V14.01,2013-02-16 02:45:00,
2013-02-15 20:46:00,30.4,-3.0,29.23,North,357,0.0,0.0,23,0.00,,---,0.00,VWS V14.01,2013-02-16 02:46:00,
2013-02-15 20:47:00,30.4,-3.0,29.23,North,357,0.0,0.0,23,0.00,,---,0.00,VWS V14.01,2013-02-16 02:47:00,
2013-02-15 20:48:00,30.6,-2.8,29.23,North,357,0.0,0.0,23,0.00,,---,0.00,VWS V14.01,2013-02-16 02:48:00,
2013-02-15 20:50:00,30.7,-2.7,29.23,NNE,33,4.0,4.0,23,0.00,,---,0.00,VWS V14.01,2013-02-16 02:50:00,
2013-02-15 20:52:00,30.7,-2.7,29.23,NNE,33,0.0,4.0,23,0.00,,---,0.00,VWS V14.01,2013-02-16 02:52:00,
2013-02-15 20:53:00,30.7,-2.7,29.23,NNE,33,0.0,0.0,23,0.00,,---,0.00,VWS V14.01,2013-02-16 02:53:00,
2013-02-15 20:55:00,30.9,-2.5,29.23,NNE,33,0.0,0.0,23,0.00,,---,0.00,VWS V14.01,2013-02-16 02:55:00,
2013-02-15 20:57:00,30.9,-2.5,29.23,NNE,33,0.0,0.0,23,0.00,,---,0.00,VWS V14.01,2013-02-16 02:57:00,
2013-02-15 20:58:00,30.9,-2.5,29.23,NNE,33,0.0,0.0,23,0.00,,---,0.00,VWS V14.01,2013-02-16 02:58:00,
2013-02-15 21:01:00,31.1,-2.4,29.23,NNW,327,3.6,3.6,23,0.00,,---,0.00,VWS V14.01,2013-02-16 03:01:00,
2013-02-15 21:02:00,31.1,-2.4,29.23,NNW,327,3.6,3.6,23,0.00,,---,0.00,VWS V14.01,2013-02-16 03:02:00,
2013-02-15 21:03:00,31.1,-2.4,29.26,North,353,3.1,3.1,23,0.00,,---,0.00,VWS V14.01,2013-02-16 03:03:00,
2013-02-15 21:06:00,31.1,-2.4,29.26,NW,315,2.7,2.7,23,0.00,,---,0.00,VWS V14.01,2013-02-16 03:06:00,
2013-02-15 21:07:00,31.3,-2.2,29.26,NW,315,2.7,2.7,23,0.00,,---,0.00,VWS V14.01,2013-02-16 03:07:00,
2013-02-15 21:08:00,31.3,-2.2,29.26,NW,315,2.7,2.7,23,0.00,,---,0.00,VWS V14.01,2013-02-16 03:08:00,
2013-02-15 21:11:00,31.1,-2.4,29.26,NW,315,2.7,2.7,23,0.00,,---,0.00,VWS V14.01,2013-02-16 03:11:00,
2013-02-15 21:12:00,31.1,-2.4,29.26,NW,315,2.7,2.7,23,0.00,,---,0.00,VWS V14.01,2013-02-16 03:12:00,
2013-02-15 21:13:00,30.9,-2.5,29.26,NW,315,2.7,2.7,23,0.00,,---,0.00,VWS V14.01,2013-02-16 03:13:00,
2013-02-15 21:16:00,30.7,-2.7,29.26,NNW,339,2.7,2.7,23,0.00,,---,0.00,VWS V14.01,2013-02-16 03:16:00,
2013-02-15 21:17:00,30.6,-2.8,29.26,NNW,339,2.7,2.7,23,0.00,,---,0.00,VWS V14.01,2013-02-16 03:17:00,
2013-02-15 21:19:00,30.6,-2.8,29.26,North,350,2.7,2.7,23,0.00,,---,0.00,VWS V14.01,2013-02-16 03:19:00,
2013-02-15 21:21:00,30.4,-3.0,29.26,North,350,2.7,2.7,23,0.00,,---,0.00,VWS V14.01,2013-02-16 03:21:00,
2013-02-15 21:22:00,30.4,-3.0,29.26,WNW,298,3.6,3.6,23,0.00,,---,0.00,VWS V14.01,2013-02-16 03:22:00,
2013-02-15 21:24:00,30.2,-3.1,29.26,WNW,298,3.6,3.6,23,0.00,,---,0.00,VWS V14.01,2013-02-16 03:24:00,
2013-02-15 21:26:00,30.2,-3.1,29.26,WNW,298,3.6,3.6,23,0.00,,---,0.00,VWS V14.01,2013-02-16 03:26:00,
2013-02-15 21:27:00,30.2,-3.1,29.26,NNW,340,0.0,0.0,23,0.00,,---,0.00,VWS V14.01,2013-02-16 03:27:00,
2013-02-15 21:29:00,30.2,-3.1,29.26,NNW,340,0.0,0.0,23,0.00,,---,0.00,VWS V14.01,2013-02-16 03:29:00,
2013-02-15 21:31:00,30.2,-3.1,29.26,NNW,340,0.0,0.0,23,0.00,,---,0.00,VWS V14.01,2013-02-16 03:31:00,
2013-02-15 21:32:00,30.2,-3.1,29.26,NNW,340,0.0,0.0,23,0.00,,---,0.00,VWS V14.01,2013-02-16 03:32:00,
2013-02-15 21:34:00,30.0,-3.3,29.26,NNW,340,0.0,0.0,23,0.00,,---,0.00,VWS V14.01,2013-02-16 03:34:00,
2013-02-15 21:36:00,30.0,-3.3,29.26,NNW,340,0.0,0.0,23,0.00,,---,0.00,VWS V14.01,2013-02-16 03:36:00,
2013-02-15 21:37:00,30.0,-3.3,29.26,NNW,340,0.0,0.0,23,0.00,,---,0.00,VWS V14.01,2013-02-16 03:37:00,
2013-02-15 21:39:00,30.0,-3.3,29.26,NNW,340,0.0,0.0,23,0.00,,---,0.00,VWS V14.01,2013-02-16 03:39:00,
2013-02-15 21:41:00,29.8,-3.4,29.26,NNE,25,0.0,0.0,23,0.00,,---,0.00,VWS V14.01,2013-02-16 03:41:00,
2013-02-15 21:42:00,29.8,-3.4,29.26,NNE,25,0.0,0.0,23,0.00,,---,0.00,VWS V14.01,2013-02-16 03:42:00,
2013-02-15 21:43:00,29.8,-3.4,29.26,NNE,25,0.0,0.0,23,0.00,,---,0.00,VWS V14.01,2013-02-16 03:43:00,
2013-02-15 21:44:00,29.7,-3.6,29.26,NNE,25,0.0,0.0,23,0.00,,---,0.00,VWS V14.01,2013-02-16 03:44:00,
2013-02-15 21:47:00,29.5,-3.7,29.26,North,357,0.0,0.0,23,0.00,,---,0.00,VWS V14.01,2013-02-16 03:47:00,
2013-02-15 21:48:00,29.5,-3.7,29.26,North,357,0.0,0.0,23,0.00,,---,0.00,VWS V14.01,2013-02-16 03:48:00,
2013-02-15 21:49:00,29.5,-3.7,29.26,North,357,0.0,0.0,23,0.00,,---,0.00,VWS V14.01,2013-02-16 03:49:00,
2013-02-15 21:52:00,29.5,-3.7,29.26,North,357,0.0,0.0,23,0.00,,---,0.00,VWS V14.01,2013-02-16 03:52:00,
2013-02-15 21:53:00,29.5,-3.7,29.26,North,357,0.0,0.0,23,0.00,,---,0.00,VWS V14.01,2013-02-16 03:53:00,
2013-02-15 21:54:00,29.5,-3.7,29.26,NNE,21,0.0,0.0,23,0.00,,---,0.00,VWS V14.01,2013-02-16 03:54:00,
2013-02-15 21:57:00,29.5,-3.7,29.26,NNE,21,0.0,0.0,23,0.00,,---,0.00,VWS V14.01,2013-02-16 03:57:00,
2013-02-15 21:58:00,29.3,-3.9,29.26,NNE,21,0.0,0.0,23,0.00,,---,0.00,VWS V14.01,2013-02-16 03:58:00,
2013-02-15 22:00:00,29.3,-3.9,29.26,North,0,0.0,0.0,23,0.00,,---,0.00,VWS V14.01,2013-02-16 04:00:00,
2013-02-15 22:02:00,29.1,-4.1,29.26,North,0,0.0,0.0,23,0.00,,---,0.00,VWS V14.01,2013-02-16 04:02:00,
2013-02-15 22:03:00,29.1,-4.1,29.26,North,0,0.0,0.0,23,0.00,,---,0.00,VWS V14.01,2013-02-16 04:03:00,
2013-02-15 22:05:00,29.1,-4.1,29.26,North,0,0.0,0.0,23,0.00,,---,0.00,VWS V14.01,2013-02-16 04:05:00,
2013-02-15 22:07:00,28.9,-4.2,29.26,North,0,0.0,0.0,23,0.00,,---,0.00,VWS V14.01,2013-02-16 04:07:00,
2013-02-15 22:08:00,28.9,-4.2,29.26,NNW,329,0.0,0.0,23,0.00,,---,0.00,VWS V14.01,2013-02-16 04:08:00,
2013-02-15 22:10:00,28.9,-4.2,29.26,NNW,329,0.0,0.0,23,0.00,,---,0.00,VWS V14.01,2013-02-16 04:10:00,
2013-02-15 22:12:00,28.9,-4.2,29.26,NNW,342,0.0,0.0,23,0.00,,---,0.00,VWS V14.01,2013-02-16 04:12:00,
2013-02-15 22:13:00,28.9,-4.2,29.26,NNW,342,0.0,0.0,23,0.00,,---,0.00,VWS V14.01,2013-02-16 04:13:00,
2013-02-15 22:15:00,28.8,-4.3,29.26,ENE,61,0.0,0.0,23,0.00,,---,0.00,VWS V14.01,2013-02-16 04:15:00,
2013-02-15 22:17:00,28.8,-4.3,29.26,ENE,61,0.0,0.0,23,0.00,,---,0.00,VWS V14.01,2013-02-16 04:17:00,
2013-02-15 22:18:00,28.6,-4.5,29.26,ENE,61,0.0,0.0,23,0.00,,---,0.00,VWS V14.01,2013-02-16 04:18:00,
2013-02-15 22:20:00,28.6,-4.5,29.26,ENE,61,0.0,0.0,23,0.00,,---,0.00,VWS V14.01,2013-02-16 04:20:00,
2013-02-15 22:22:00,28.6,-4.5,29.26,South,185,0.0,0.0,23,0.00,,---,0.00,VWS V14.01,2013-02-16 04:22:00,
2013-02-15 22:23:00,28.6,-4.5,29.26,South,185,0.0,0.0,23,0.00,,---,0.00,VWS V14.01,2013-02-16 04:23:00,
2013-02-15 22:24:00,28.6,-4.5,29.26,South,185,0.0,0.0,23,0.00,,---,0.00,VWS V14.01,2013-02-16 04:24:00,
2013-02-15 22:25:00,28.4,-4.7,29.26,North,357,0.0,0.0,23,0.00,,---,0.00,VWS V14.01,2013-02-16 04:25:00,
2013-02-15 22:27:00,28.4,-4.7,29.26,North,357,0.0,0.0,23,0.00,,---,0.00,VWS V14.01,2013-02-16 04:27:00,
2013-02-15 22:28:00,28.4,-4.7,29.26,ENE,64,0.0,0.0,23,0.00,,---,0.00,VWS V14.01,2013-02-16 04:28:00,
2013-02-15 22:29:00,28.4,-4.7,29.26,ENE,64,0.0,0.0,23,0.00,,---,0.00,VWS V14.01,2013-02-16 04:29:00,
2013-02-15 22:30:00,28.2,-4.8,29.26,NNE,16,0.0,0.0,23,0.00,,---,0.00,VWS V14.01,2013-02-16 04:30:00,
2013-02-15 22:33:00,28.2,-4.8,29.26,NNE,16,0.0,0.0,23,0.00,,---,0.00,VWS V14.01,2013-02-16 04:33:00,
2013-02-15 22:34:00,28.0,-5.0,29.26,NNE,19,0.0,0.0,23,0.00,,---,0.00,VWS V14.01,2013-02-16 04:34:00,
2013-02-15 22:35:00,28.0,-5.0,29.26,NNE,19,0.0,0.0,23,0.00,,---,0.00,VWS V14.01,2013-02-16 04:35:00,
2013-02-15 22:38:00,27.9,-5.1,29.26,NNW,345,2.2,2.2,23,0.00,,---,0.00,VWS V14.01,2013-02-16 04:38:00,
2013-02-15 22:39:00,27.9,-5.1,29.26,NNE,28,0.0,0.0,23,0.00,,---,0.00,VWS V14.01,2013-02-16 04:39:00,
2013-02-15 22:40:00,27.9,-5.1,29.26,NNE,28,0.0,0.0,23,0.00,,---,0.00,VWS V14.01,2013-02-16 04:40:00,
2013-02-15 22:43:00,27.9,-5.1,29.26,North,0,2.7,2.7,23,0.00,,---,0.00,VWS V14.01,2013-02-16 04:43:00,
2013-02-15 22:44:00,27.9,-5.1,29.26,North,0,2.7,2.7,23,0.00,,---,0.00,VWS V14.01,2013-02-16 04:44:00,
2013-02-15 22:45:00,27.9,-5.1,29.26,North,0,2.7,2.7,23,0.00,,---,0.00,VWS V14.01,2013-02-16 04:45:00,
2013-02-15 22:48:00,27.9,-5.1,29.26,North,353,0.0,0.0,23,0.00,,---,0.00,VWS V14.01,2013-02-16 04:48:00,
2013-02-15 22:49:00,27.9,-5.1,29.26,North,353,0.0,0.0,23,0.00,,---,0.00,VWS V14.01,2013-02-16 04:49:00,
2013-02-15 22:50:00,27.9,-5.1,29.26,North,353,0.0,0.0,23,0.00,,---,0.00,VWS V14.01,2013-02-16 04:50:00,
2013-02-15 22:53:00,27.9,-5.1,29.26,North,353,0.0,0.0,23,0.00,,---,0.00,VWS V14.01,2013-02-16 04:53:00,
2013-02-15 22:54:00,27.9,-5.1,29.26,North,353,0.0,0.0,23,0.00,,---,0.00,VWS V14.01,2013-02-16 04:54:00,
2013-02-15 22:55:00,27.9,-5.1,29.26,North,353,0.0,0.0,23,0.00,,---,0.00,VWS V14.01,2013-02-16 04:55:00,
2013-02-15 22:58:00,27.9,-5.1,29.26,North,353,0.0,0.0,23,0.00,,---,0.00,VWS V14.01,2013-02-16 04:58:00,
2013-02-15 22:59:00,27.9,-5.1,29.26,North,353,0.0,0.0,23,0.00,,---,0.00,VWS V14.01,2013-02-16 04:59:00,
2013-02-15 23:00:00,27.9,-5.1,29.26,North,353,0.0,0.0,23,0.00,,---,0.00,VWS V14.01,2013-02-16 05:00:00,
2013-02-15 23:05:00,27.7,-5.3,29.26,NE,49,0.0,0.0,23,0.00,,---,0.00,VWS V14.01,2013-02-16 05:05:00,
2013-02-15 23:10:00,27.7,-5.3,29.26,NE,49,0.0,0.0,23,0.00,,---,0.00,VWS V14.01,2013-02-16 05:10:00,
2013-02-15 23:15:00,27.7,-5.3,29.26,North,0,2.2,2.2,23,0.00,,---,0.00,VWS V14.01,2013-02-16 05:15:00,
2013-02-15 23:20:00,27.7,-5.3,29.26,North,357,0.0,0.0,23,0.00,,---,0.00,VWS V14.01,2013-02-16 05:20:00,
2013-02-15 23:23:00,27.7,-5.3,29.26,North,357,0.0,0.0,23,0.00,,---,0.00,VWS V14.01,2013-02-16 05:23:00,
2013-02-15 23:25:00,27.5,-5.4,29.26,North,357,0.0,0.0,23,0.00,,---,0.00,VWS V14.01,2013-02-16 05:25:00,
2013-02-15 23:26:00,27.5,-5.4,29.26,North,357,0.0,0.0,23,0.00,,---,0.00,VWS V14.01,2013-02-16 05:26:00,
2013-02-15 23:28:00,27.5,-5.4,29.26,North,357,0.0,0.0,23,0.00,,---,0.00,VWS V14.01,2013-02-16 05:28:00,
2013-02-15 23:30:00,27.5,-5.4,29.26,North,357,0.0,0.0,23,0.00,,---,0.00,VWS V14.01,2013-02-16 05:30:00,
2013-02-15 23:31:00,27.5,-5.4,29.26,North,357,0.0,0.0,23,0.00,,---,0.00,VWS V14.01,2013-02-16 05:31:00,
2013-02-15 23:33:00,27.5,-5.4,29.26,North,6,0.0,0.0,23,0.00,,---,0.00,VWS V14.01,2013-02-16 05:33:00,
2013-02-15 23:35:00,27.7,-5.3,29.26,NE,51,0.0,0.0,23,0.00,,---,0.00,VWS V14.01,2013-02-16 05:35:00,
2013-02-15 23:36:00,27.7,-5.3,29.26,ENE,60,0.0,0.0,23,0.00,,---,0.00,VWS V14.01,2013-02-16 05:36:00,
2013-02-15 23:38:00,27.7,-5.3,29.26,ENE,60,0.0,0.0,23,0.00,,---,0.00,VWS V14.01,2013-02-16 05:38:00,
2013-02-15 23:40:00,27.7,-5.3,29.26,ENE,60,0.0,0.0,23,0.00,,---,0.00,VWS V14.01,2013-02-16 05:40:00,
2013-02-15 23:41:00,27.7,-5.3,29.26,ENE,60,0.0,0.0,23,0.00,,---,0.00,VWS V14.01,2013-02-16 05:41:00,
2013-02-15 23:43:00,27.7,-5.3,29.26,ENE,60,0.0,0.0,23,0.00,,---,0.00,VWS V14.01,2013-02-16 05:43:00,
2013-02-15 23:45:00,27.5,-5.4,29.26,ENE,60,0.0,0.0,23,0.00,,---,0.00,VWS V14.01,2013-02-16 05:45:00,
2013-02-15 23:46:00,27.5,-5.4,29.26,ENE,60,0.0,0.0,23,0.00,,---,0.00,VWS V14.01,2013-02-16 05:46:00,
2013-02-15 23:48:00,27.5,-5.4,29.26,ENE,60,0.0,0.0,23,0.00,,---,0.00,VWS V14.01,2013-02-16 05:48:00,
2013-02-15 23:50:00,27.5,-5.4,29.26,ENE,60,0.0,0.0,23,0.00,,---,0.00,VWS V14.01,2013-02-16 05:50:00,
2013-02-15 23:51:00,27.5,-5.4,29.26,ENE,60,0.0,0.0,23,0.00,,---,0.00,VWS V14.01,2013-02-16 05:51:00,
2013-02-15 23:53:00,27.5,-5.4,29.26,ENE,60,0.0,0.0,23,0.00,,---,0.00,VWS V14.01,2013-02-16 05:53:00,
2013-02-15 23:55:00,27.3,-5.6,29.26,North,353,0.0,0.0,23,0.00,,---,0.00,VWS V14.01,2013-02-16 05:55:00,
2013-02-15 23:56:00,27.3,-5.6,29.26,North,353,0.0,0.0,23,0.00,,---,0.00,VWS V14.01,2013-02-16 05:56:00,
2013-02-15 23:58:00,27.3,-5.6,29.26,NNW,342,0.0,0.0,23,0.00,,---,0.00,VWS V14.01,2013-02-16 05:58:00,